Observation data for Lake McClellan 2NW on 06/25/2019      Previous  Date  Next       Current Mesonet Observations  Soil Data  Daily Summary Page  Observations in Plain Language
KMC5 250500Z 13010KT 20/14 A2999 RMK A01 T02040140  RH  067%=      5-min Rain = 0
KMC5 250501Z 13011KT 20/14 A2999 RMK A01 T02040141  RH  067%=      5-min Rain = 0
KMC5 250502Z 13009KT 21/14 A2999 RMK A01 T02050141  RH  067%=      5-min Rain = 0
KMC5 250503Z 13009KT 21/14 A2999 RMK A01 T02060142  RH  067%=      5-min Rain = 0
KMC5 250504Z 13009KT 20/14 A2999 RMK A01 T02040143  RH  068%=      5-min Rain = 0
KMC5 250505Z 13009KT 20/14 A2999 RMK A01 T02030143  RH  068%=      5-min Rain = 0
KMC5 250506Z 13010KT 20/14 A2999 RMK A01 T02030143  RH  068%=      5-min Rain = 0
KMC5 250507Z 13010KT 20/14 A2999 RMK A01 T02030143  RH  068%=      5-min Rain = 0
KMC5 250508Z 13009KT 20/14 A2999 RMK A01 T02030143  RH  068%=      5-min Rain = 0
KMC5 250509Z 13009KT 20/14 A2999 RMK A01 T02030143  RH  068%=      5-min Rain = 0
KMC5 250510Z 13009KT 20/14 A2999 RMK A01 T02030144  RH  069%=      5-min Rain = 0
KMC5 250511Z 13008KT 20/14 A2999 RMK A01 T02020144  RH  069%=      5-min Rain = 0
KMC5 250512Z 13009KT 20/15 A2999 RMK A01 T02010145  RH  070%=      5-min Rain = 0
KMC5 250513Z 13009KT 20/14 A2999 RMK A01 T02010144  RH  070%=      5-min Rain = 0
KMC5 250514Z 12009KT 20/15 A2999 RMK A01 T02010145  RH  070%=      5-min Rain = 0
KMC5 250515Z 13009KT 20/15 A2999 RMK A01 T02020145  RH  070%=      5-min Rain = 0
KMC5 250516Z 13008KT 20/15 A2999 RMK A01 T02020145  RH  070%=      5-min Rain = 0
KMC5 250517Z 13008KT 20/15 A2999 RMK A01 T02010145  RH  070%=      5-min Rain = 0
KMC5 250518Z 13009KT 20/15 A2999 RMK A01 T02000146  RH  071%=      5-min Rain = 0
KMC5 250519Z 13009KT 20/15 A2999 RMK A01 T02000146  RH  071%=      5-min Rain = 0
KMC5 250520Z 13008KT 20/15 A2999 RMK A01 T02000146  RH  071%=      5-min Rain = 0
KMC5 250521Z 13008KT 20/15 A2999 RMK A01 T02000146  RH  071%=      5-min Rain = 0
KMC5 250522Z 13009KT 20/15 A2999 RMK A01 T01990147  RH  072%=      5-min Rain = 0
KMC5 250523Z 13008KT 20/15 A2999 RMK A01 T01980147  RH  072%=      5-min Rain = 0
KMC5 250524Z 13009KT 20/15 A2999 RMK A01 T01980147  RH  072%=      5-min Rain = 0
KMC5 250525Z 13009KT 20/15 A2999 RMK A01 T01980147  RH  072%=      5-min Rain = 0
KMC5 250526Z 13008KT 20/15 A2999 RMK A01 T01980147  RH  072%=      5-min Rain = 0
KMC5 250527Z 13008KT 20/15 A2999 RMK A01 T01980147  RH  073%=      5-min Rain = 0
KMC5 250528Z 13008KT 20/15 A2999 RMK A01 T01980148  RH  073%=      5-min Rain = 0
KMC5 250529Z 13008KT 20/15 A2999 RMK A01 T01980148  RH  073%=      5-min Rain = 0
KMC5 250530Z 13008KT 20/15 A2999 RMK A01 T01980148  RH  073%=      5-min Rain = 0
KMC5 250531Z 13008KT 20/15 A2999 RMK A01 T01970148  RH  073%=      5-min Rain = 0
KMC5 250532Z 12008KT 20/15 A2999 RMK A01 T01960148  RH  074%=      5-min Rain = 0
KMC5 250533Z 12008KT 20/15 A2999 RMK A01 T01970149  RH  074%=      5-min Rain = 0
KMC5 250534Z 12008KT 20/15 A2999 RMK A01 T01960149  RH  074%=      5-min Rain = 0
KMC5 250535Z 12007KT 20/15 A2999 RMK A01 T01960148  RH  074%=      5-min Rain = 0
KMC5 250536Z 12008KT 20/15 A2999 RMK A01 T01960149  RH  074%=      5-min Rain = 0
KMC5 250537Z 12007KT 20/15 A2999 RMK A01 T01960149  RH  074%=      5-min Rain = 0
KMC5 250538Z 12007KT 20/15 A2999 RMK A01 T01960150  RH  075%=      5-min Rain = 0
KMC5 250539Z 12008KT 20/15 A2999 RMK A01 T01950149  RH  075%=      5-min Rain = 0
KMC5 250540Z 12009KT 20/15 A2999 RMK A01 T01950149  RH  075%=      5-min Rain = 0
KMC5 250541Z 12009KT 20/15 A2999 RMK A01 T01960150  RH  075%=      5-min Rain = 0
KMC5 250542Z 12008KT 20/15 A2999 RMK A01 T01970150  RH  074%=      5-min Rain = 0
KMC5 250543Z 13009KT 20/15 A2999 RMK A01 T01980150  RH  074%=      5-min Rain = 0
KMC5 250544Z 12008KT 20/15 A2999 RMK A01 T01970151  RH  074%=      5-min Rain = 0
KMC5 250545Z 12008KT 20/15 A2999 RMK A01 T01960151  RH  075%=      5-min Rain = 0
KMC5 250546Z 12008KT 20/15 A2999 RMK A01 T01960151  RH  075%=      5-min Rain = 0
KMC5 250547Z 13007KT 20/15 A2999 RMK A01 T01950151  RH  076%=      5-min Rain = 0
KMC5 250548Z 13007KT 20/15 A2999 RMK A01 T01950151  RH  076%=      5-min Rain = 0
KMC5 250549Z 13009KT 20/15 A2999 RMK A01 T01950151  RH  076%=      5-min Rain = 0
KMC5 250550Z 13008KT 20/15 A2999 RMK A01 T01950151  RH  076%=      5-min Rain = 0
KMC5 250551Z 13008KT 20/15 A2999 RMK A01 T01950151  RH  076%=      5-min Rain = 0
KMC5 250552Z 13010KT 20/15 A2999 RMK A01 T01950151  RH  076%=      5-min Rain = 0
KMC5 250553Z 13009KT 20/15 A2999 RMK A01 T01950151  RH  076%=      5-min Rain = 0
KMC5 250554Z 13009KT 20/15 A2999 RMK A01 T01950152  RH  076%=      5-min Rain = 0
KMC5 250555Z 13009KT 20/15 A2999 RMK A01 T01950151  RH  076%=      5-min Rain = 0
KMC5 250556Z 13008KT 20/15 A2999 RMK A01 T01950152  RH  076%=      5-min Rain = 0
KMC5 250557Z 13008KT 20/15 A2999 RMK A01 T01950152  RH  076%=      5-min Rain = 0
KMC5 250558Z 13008KT 20/15 A2999 RMK A01 T01950152  RH  076%=      5-min Rain = 0
KMC5 250559Z 12008KT 20/15 A2999 RMK A01 T01950152  RH  076%=      5-min Rain = 0
KMC5 250600Z 13007KT 19/15 A2999 RMK A01 T01940152  RH  077%=      5-min Rain = 0
KMC5 250601Z 13008KT 19/15 A2999 RMK A01 T01930152  RH  077%=      5-min Rain = 0
KMC5 250602Z 12008KT 19/15 A2999 RMK A01 T01930152  RH  077%=      5-min Rain = 0
KMC5 250603Z 12007KT 19/15 A2999 RMK A01 T01930152  RH  077%=      5-min Rain = 0
KMC5 250604Z 12008KT 19/15 A2999 RMK A01 T01930153  RH  078%=      5-min Rain = 0
KMC5 250605Z 12007KT 19/15 A2998 RMK A01 T01930153  RH  078%=      5-min Rain = 0
KMC5 250606Z 12007KT 19/15 A2998 RMK A01 T01920154  RH  078%=      5-min Rain = 0
KMC5 250607Z 12008KT 19/15 A2998 RMK A01 T01920154  RH  078%=      5-min Rain = 0
KMC5 250608Z 13008KT 19/15 A2998 RMK A01 T01920154  RH  078%=      5-min Rain = 0
KMC5 250609Z 12008KT 19/15 A2998 RMK A01 T01920154  RH  078%=      5-min Rain = 0
KMC5 250610Z 12008KT 19/15 A2998 RMK A01 T01930154  RH  078%=      5-min Rain = 0
KMC5 250611Z 12008KT 19/16 A2998 RMK A01 T01930155  RH  078%=      5-min Rain = 0
KMC5 250612Z 12007KT 19/15 A2998 RMK A01 T01930154  RH  078%=      5-min Rain = 0
KMC5 250613Z 13007KT 19/15 A2998 RMK A01 T01930154  RH  078%=      5-min Rain = 0
KMC5 250614Z 13008KT 19/15 A2998 RMK A01 T01930154  RH  079%=      5-min Rain = 0
KMC5 250615Z 12008KT 19/16 A2999 RMK A01 T01930155  RH  079%=      5-min Rain = 0
KMC5 250616Z 12008KT 19/16 A2999 RMK A01 T01930155  RH  079%=      5-min Rain = 0
KMC5 250617Z 13008KT 19/16 A2998 RMK A01 T01930156  RH  079%=      5-min Rain = 0
KMC5 250618Z 13008KT 19/16 A2999 RMK A01 T01920156  RH  079%=      5-min Rain = 0
KMC5 250619Z 13008KT 19/16 A2998 RMK A01 T01930156  RH  080%=      5-min Rain = 0
KMC5 250620Z 12008KT 19/16 A2998 RMK A01 T01930157  RH  080%=      5-min Rain = 0
KMC5 250621Z 13008KT 19/16 A2998 RMK A01 T01930157  RH  080%=      5-min Rain = 0
KMC5 250622Z 13008KT 19/16 A2998 RMK A01 T01920157  RH  080%=      5-min Rain = 0
KMC5 250623Z 13008KT 19/16 A2998 RMK A01 T01920157  RH  080%=      5-min Rain = 0
KMC5 250624Z 13010KT 19/16 A2998 RMK A01 T01920157  RH  080%=      5-min Rain = 0
KMC5 250625Z 13010KT 19/16 A2998 RMK A01 T01930157  RH  080%=      5-min Rain = 0
KMC5 250626Z 13008KT 19/16 A2998 RMK A01 T01940158  RH  079%=      5-min Rain = 0
KMC5 250627Z 13011KT 20/16 A2998 RMK A01 T01950158  RH  079%=      5-min Rain = 0
KMC5 250628Z 14009KT 20/16 A2998 RMK A01 T01950158  RH  079%=      5-min Rain = 0
KMC5 250629Z 14009KT 20/16 A2998 RMK A01 T01950158  RH  079%=      5-min Rain = 0
KMC5 250630Z 14010KT 20/16 A2998 RMK A01 T01950158  RH  079%=      5-min Rain = 0
KMC5 250631Z 14010KT 20/16 A2998 RMK A01 T01950158  RH  079%=      5-min Rain = 0
KMC5 250632Z 14008KT 20/16 A2998 RMK A01 T01960158  RH  079%=      5-min Rain = 0
KMC5 250633Z 14008KT 20/16 A2998 RMK A01 T01960159  RH  079%=      5-min Rain = 0
KMC5 250634Z 14009KT 19/16 A2999 RMK A01 T01940158  RH  079%=      5-min Rain = 0
KMC5 250635Z 15009KT 19/16 A2999 RMK A01 T01940158  RH  079%=      5-min Rain = 0
KMC5 250636Z 14009KT 19/16 A2999 RMK A01 T01940158  RH  079%=      5-min Rain = 0
KMC5 250637Z 15009KT 20/16 A2999 RMK A01 T01950158  RH  079%=      5-min Rain = 0
KMC5 250638Z 15008KT 20/16 A2999 RMK A01 T01950159  RH  079%=      5-min Rain = 0
KMC5 250639Z 14009KT 20/16 A2999 RMK A01 T01950159  RH  080%=      5-min Rain = 0
KMC5 250640Z 15009KT 20/16 A2999 RMK A01 T01950159  RH  080%=      5-min Rain = 0
KMC5 250641Z 15009KT 20/16 A2999 RMK A01 T01960159  RH  080%=      5-min Rain = 0
KMC5 250642Z 15009KT 20/16 A2999 RMK A01 T01960160  RH  079%=      5-min Rain = 0
KMC5 250643Z 15009KT 20/16 A2999 RMK A01 T01960160  RH  080%=      5-min Rain = 0
KMC5 250644Z 15008KT 20/16 A2999 RMK A01 T01960160  RH  080%=      5-min Rain = 0
KMC5 250645Z 14008KT 20/16 A2999 RMK A01 T01960160  RH  080%=      5-min Rain = 0
KMC5 250646Z 14010KT 20/16 A2999 RMK A01 T01960161  RH  080%=      5-min Rain = 0
KMC5 250647Z 14009KT 20/16 A2999 RMK A01 T01960161  RH  080%=      5-min Rain = 0
KMC5 250648Z 14009KT 20/16 A2999 RMK A01 T01970161  RH  080%=      5-min Rain = 0
KMC5 250649Z 14009KT 20/16 A2999 RMK A01 T01980162  RH  080%=      5-min Rain = 0
KMC5 250650Z 14008KT 20/16 A2999 RMK A01 T01970162  RH  080%=      5-min Rain = 0
KMC5 250651Z 15008KT 20/16 A2999 RMK A01 T01960162  RH  081%=      5-min Rain = 0
KMC5 250652Z 15008KT 20/16 A2999 RMK A01 T01960162  RH  081%=      5-min Rain = 0
KMC5 250653Z 15009KT 20/16 A2999 RMK A01 T01960163  RH  081%=      5-min Rain = 0
KMC5 250654Z 16007KT 20/16 A2999 RMK A01 T01960163  RH  082%=      5-min Rain = 0
KMC5 250655Z 15007KT 20/16 A2999 RMK A01 T01960163  RH  081%=      5-min Rain = 0
KMC5 250656Z 15007KT 20/16 A2999 RMK A01 T01960164  RH  082%=      5-min Rain = 0
KMC5 250657Z 15007KT 20/17 A2999 RMK A01 T01960165  RH  082%=      5-min Rain = 0
KMC5 250658Z 16007KT 20/17 A2999 RMK A01 T01970165  RH  082%=      5-min Rain = 0
KMC5 250659Z 16007KT 20/17 A2999 RMK A01 T01970166  RH  082%=      5-min Rain = 0
KMC5 250700Z 15007KT 20/17 A2999 RMK A01 T01980166  RH  082%=      5-min Rain = 0
KMC5 250701Z 15008KT 20/17 A2999 RMK A01 T01980167  RH  082%=      5-min Rain = 0
KMC5 250702Z 15009KT 20/17 A2999 RMK A01 T01990168  RH  082%=      5-min Rain = 0
KMC5 250703Z 16008KT 20/17 A2999 RMK A01 T02000169  RH  082%=      5-min Rain = 0
KMC5 250704Z 16008KT 20/17 A2999 RMK A01 T02010170  RH  082%=      5-min Rain = 0
KMC5 250705Z 15008KT 20/17 A2999 RMK A01 T02010170  RH  082%=      5-min Rain = 0
KMC5 250706Z 16007KT 20/17 A2999 RMK A01 T02020170  RH  082%=      5-min Rain = 0
KMC5 250707Z 16007KT 20/17 A2999 RMK A01 T02020171  RH  082%=      5-min Rain = 0
KMC5 250708Z 15007KT 20/17 A2999 RMK A01 T02020172  RH  083%=      5-min Rain = 0
KMC5 250709Z 16007KT 20/17 A2999 RMK A01 T02020173  RH  083%=      5-min Rain = 0
KMC5 250710Z 15007KT 20/17 A2999 RMK A01 T02030174  RH  084%=      5-min Rain = 0
KMC5 250711Z 16009KT 20/17 A2999 RMK A01 T02030174  RH  083%=      5-min Rain = 0
KMC5 250712Z 16008KT 20/18 A2999 RMK A01 T02040176  RH  084%=      5-min Rain = 0
KMC5 250713Z 15007KT 21/18 A2999 RMK A01 T02050176  RH  084%=      5-min Rain = 0
KMC5 250714Z 16008KT 21/18 A2999 RMK A01 T02050176  RH  084%=      5-min Rain = 0
KMC5 250715Z 15008KT 21/18 A2999 RMK A01 T02050177  RH  084%=      5-min Rain = 0
KMC5 250716Z 15008KT 21/18 A2999 RMK A01 T02060178  RH  084%=      5-min Rain = 0
KMC5 250717Z 16008KT 21/18 A2999 RMK A01 T02060178  RH  084%=      5-min Rain = 0
KMC5 250718Z 15009KT 21/18 A2999 RMK A01 T02060178  RH  084%=      5-min Rain = 0
KMC5 250719Z 15010KT 21/18 A2999 RMK A01 T02070179  RH  084%=      5-min Rain = 0
KMC5 250720Z 15010KT 21/18 A2999 RMK A01 T02070179  RH  084%=      5-min Rain = 0
KMC5 250721Z 15008KT 21/18 A2999 RMK A01 T02070179  RH  084%=      5-min Rain = 0
KMC5 250722Z 16010KT 21/18 A2999 RMK A01 T02080179  RH  084%=      5-min Rain = 0
KMC5 250723Z 16012KT 21/18 A2999 RMK A01 T02070179  RH  084%=      5-min Rain = 0
KMC5 250724Z 15013KT 21/18 A2999 RMK A01 T02080180  RH  084%=      5-min Rain = 0
KMC5 250725Z 16013KT 21/18 A2999 RMK A01 T02090180  RH  084%=      5-min Rain = 0
KMC5 250726Z 16013KT 21/18 A2999 RMK A01 T02080179  RH  083%=      5-min Rain = 0
KMC5 250727Z 15011KT 21/18 A2999 RMK A01 T02090179  RH  083%=      5-min Rain = 0
KMC5 250728Z 16011KT 21/18 A2999 RMK A01 T02080179  RH  083%=      5-min Rain = 0
KMC5 250729Z 16012KT 21/18 A2999 RMK A01 T02080179  RH  084%=      5-min Rain = 0
KMC5 250730Z 16011KT 21/18 A2999 RMK A01 T02070179  RH  084%=      5-min Rain = 0
KMC5 250731Z 16011KT 21/18 A2999 RMK A01 T02070179  RH  084%=      5-min Rain = 0
KMC5 250732Z 16011KT 21/18 A2999 RMK A01 T02070179  RH  084%=      5-min Rain = 0
KMC5 250733Z 16009KT 21/18 A2999 RMK A01 T02070179  RH  084%=      5-min Rain = 0
KMC5 250734Z 16011KT 21/18 A2999 RMK A01 T02070179  RH  084%=      5-min Rain = 0
KMC5 250735Z 16010KT 21/18 A2999 RMK A01 T02070180  RH  084%=      5-min Rain = 0
KMC5 250736Z 16012KT 21/18 A2999 RMK A01 T02070180  RH  085%=      5-min Rain = 0
KMC5 250737Z 16011KT 21/18 A2999 RMK A01 T02070180  RH  085%=      5-min Rain = 0
KMC5 250738Z 16011KT 21/18 A2999 RMK A01 T02070180  RH  085%=      5-min Rain = 0
KMC5 250739Z 17011KT 21/18 A2998 RMK A01 T02070181  RH  085%=      5-min Rain = 0
KMC5 250740Z 17010KT 21/18 A2998 RMK A01 T02070181  RH  085%=      5-min Rain = 0
KMC5 250741Z 16011KT 21/18 A2998 RMK A01 T02070182  RH  085%=      5-min Rain = 0
KMC5 250742Z 16011G16KT 21/18 A2999 RMK A01 T02070181  RH  085%=      5-min Rain = 0
KMC5 250743Z 16011KT 21/18 A2998 RMK A01 T02070182  RH  086%=      5-min Rain = 0
KMC5 250744Z 16011KT 21/18 A2999 RMK A01 T02070182  RH  086%=      5-min Rain = 0
KMC5 250745Z 17011KT 21/18 A2999 RMK A01 T02070182  RH  086%=      5-min Rain = 0
KMC5 250746Z 16012KT 21/18 A2999 RMK A01 T02070184  RH  086%=      5-min Rain = 0
KMC5 250747Z 16012KT 21/18 A2999 RMK A01 T02070184  RH  086%=      5-min Rain = 0
KMC5 250748Z 17013KT 21/18 A2999 RMK A01 T02080184  RH  086%=      5-min Rain = 0
KMC5 250749Z 16011KT 21/18 A2999 RMK A01 T02080184  RH  086%=      5-min Rain = 0
KMC5 250750Z 17012KT 21/18 A2999 RMK A01 T02080184  RH  086%=      5-min Rain = 0
KMC5 250751Z 17013KT 21/19 A2999 RMK A01 T02080185  RH  086%=      5-min Rain = 0
KMC5 250752Z 16011KT 21/18 A2999 RMK A01 T02080184  RH  086%=      5-min Rain = 0
KMC5 250753Z 16011KT 21/19 A2999 RMK A01 T02080185  RH  086%=      5-min Rain = 0
KMC5 250754Z 17011KT 21/19 A2998 RMK A01 T02080185  RH  087%=      5-min Rain = 0
KMC5 250755Z 17010KT 21/19 A2998 RMK A01 T02080185  RH  087%=      5-min Rain = 0
KMC5 250756Z 17012KT 21/19 A2998 RMK A01 T02080185  RH  087%=      5-min Rain = 0
KMC5 250757Z 16011KT 21/19 A2998 RMK A01 T02080186  RH  087%=      5-min Rain = 0
KMC5 250758Z 16011KT 21/19 A2998 RMK A01 T02080186  RH  087%=      5-min Rain = 0
KMC5 250759Z 16012KT 21/19 A2998 RMK A01 T02080186  RH  087%=      5-min Rain = 0
KMC5 250800Z 16012KT 21/19 A2998 RMK A01 T02090187  RH  087%=      5-min Rain = 0
KMC5 250801Z 16013KT 21/19 A2998 RMK A01 T02090187  RH  087%=      5-min Rain = 0
KMC5 250802Z 16014KT 21/19 A2998 RMK A01 T02090186  RH  087%=      5-min Rain = 0
KMC5 250803Z 16012KT 21/19 A2998 RMK A01 T02090186  RH  087%=      5-min Rain = 0
KMC5 250804Z 17010KT 21/19 A2998 RMK A01 T02100186  RH  087%=      5-min Rain = 0
KMC5 250805Z 17012KT 21/19 A2998 RMK A01 T02090186  RH  087%=      5-min Rain = 0
KMC5 250806Z 16012KT 21/19 A2998 RMK A01 T02090186  RH  087%=      5-min Rain = 0
KMC5 250807Z 17010KT 21/19 A2998 RMK A01 T02090186  RH  087%=      5-min Rain = 0
KMC5 250808Z 16010KT 21/19 A2998 RMK A01 T02090186  RH  087%=      5-min Rain = 0
KMC5 250809Z 17010KT 21/19 A2998 RMK A01 T02090187  RH  087%=      5-min Rain = 0
KMC5 250810Z 16008KT 21/19 A2998 RMK A01 T02080186  RH  087%=      5-min Rain = 0
KMC5 250811Z 17009KT 21/19 A2998 RMK A01 T02080186  RH  087%=      5-min Rain = 0
KMC5 250812Z 16009KT 21/19 A2998 RMK A01 T02070185  RH  087%=      5-min Rain = 0
KMC5 250813Z 17008KT 21/19 A2998 RMK A01 T02060185  RH  088%=      5-min Rain = 0
KMC5 250814Z 17010KT 21/19 A2998 RMK A01 T02050185  RH  088%=      5-min Rain = 0
KMC5 250815Z 16008KT 21/19 A2998 RMK A01 T02050185  RH  088%=      5-min Rain = 0
KMC5 250816Z 17009KT 21/19 A2998 RMK A01 T02050185  RH  088%=      5-min Rain = 0
KMC5 250817Z 16010KT 20/18 A2998 RMK A01 T02040184  RH  089%=      5-min Rain = 0
KMC5 250818Z 16009KT 20/19 A2998 RMK A01 T02040185  RH  089%=      5-min Rain = 0
KMC5 250819Z 16009KT 20/18 A2998 RMK A01 T02040184  RH  089%=      5-min Rain = 0
KMC5 250820Z 16008KT 20/18 A2998 RMK A01 T02030184  RH  089%=      5-min Rain = 0
KMC5 250821Z 16008KT 20/18 A2998 RMK A01 T02030184  RH  089%=      5-min Rain = 0
KMC5 250822Z 16009KT 20/18 A2998 RMK A01 T02020184  RH  089%=      5-min Rain = 0
KMC5 250823Z 16007KT 20/18 A2998 RMK A01 T02020184  RH  089%=      5-min Rain = 0
KMC5 250824Z 16007KT 20/18 A2998 RMK A01 T02020184  RH  090%=      5-min Rain = 0
KMC5 250825Z 17007KT 20/18 A2998 RMK A01 T02010184  RH  090%=      5-min Rain = 0
KMC5 250826Z 16008KT 20/18 A2999 RMK A01 T02010183  RH  090%=      5-min Rain = 0
KMC5 250827Z 17009KT 20/18 A2999 RMK A01 T02000184  RH  090%=      5-min Rain = 0
KMC5 250828Z 16008KT 20/19 A2999 RMK A01 T02010185  RH  091%=      5-min Rain = 0
KMC5 250829Z 16007KT 20/19 A2999 RMK A01 T02010185  RH  091%=      5-min Rain = 0
KMC5 250830Z 17009KT 20/19 A2999 RMK A01 T02010186  RH  091%=      5-min Rain = 0
KMC5 250831Z 17009KT 20/19 A2999 RMK A01 T02020186  RH  091%=      5-min Rain = 0
KMC5 250832Z 17007KT 20/19 A2998 RMK A01 T02020186  RH  090%=      5-min Rain = 0
KMC5 250833Z 18007KT 20/19 A2998 RMK A01 T02030186  RH  090%=      5-min Rain = 0
KMC5 250834Z 17008KT 20/19 A2998 RMK A01 T02020186  RH  090%=      5-min Rain = 0
KMC5 250835Z 17008KT 20/19 A2998 RMK A01 T02020186  RH  091%=      5-min Rain = 0
KMC5 250836Z 17008KT 20/19 A2998 RMK A01 T02020186  RH  091%=      5-min Rain = 0
KMC5 250837Z 17007KT 20/19 A2998 RMK A01 T02020186  RH  091%=      5-min Rain = 0
KMC5 250838Z 17008KT 20/19 A2999 RMK A01 T02010186  RH  091%=      5-min Rain = 0
KMC5 250839Z 16008KT 20/19 A2999 RMK A01 T02010186  RH  091%=      5-min Rain = 0
KMC5 250840Z 16008KT 20/19 A2999 RMK A01 T02010187  RH  091%=      5-min Rain = 0
KMC5 250841Z 16008KT 20/19 A2998 RMK A01 T02010187  RH  092%=      5-min Rain = 0
KMC5 250842Z 16007KT 20/19 A2998 RMK A01 T02010186  RH  091%=      5-min Rain = 0
KMC5 250843Z 17007KT 20/19 A2998 RMK A01 T02010186  RH  091%=      5-min Rain = 0
KMC5 250844Z 17008KT 20/19 A2998 RMK A01 T02010186  RH  091%=      5-min Rain = 0
KMC5 250845Z 17007KT 20/19 A2998 RMK A01 T02010186  RH  091%=      5-min Rain = 0
KMC5 250846Z 17006KT 20/19 A2998 RMK A01 T02010186  RH  091%=      5-min Rain = 0
KMC5 250847Z 17007KT 20/19 A2998 RMK A01 T02000186  RH  091%=      5-min Rain = 0
KMC5 250848Z 17006KT 20/19 A2998 RMK A01 T02000186  RH  092%=      5-min Rain = 0
KMC5 250849Z 17007KT 20/19 A2998 RMK A01 T02000186  RH  092%=      5-min Rain = 0
KMC5 250850Z 16008KT 20/19 A2998 RMK A01 T01990186  RH  092%=      5-min Rain = 0
KMC5 250851Z 16007KT 20/19 A2998 RMK A01 T01990186  RH  092%=      5-min Rain = 0
KMC5 250852Z 16006KT 20/19 A2998 RMK A01 T01990186  RH  092%=      5-min Rain = 0
KMC5 250853Z 16007KT 20/19 A2998 RMK A01 T01990186  RH  093%=      5-min Rain = 0
KMC5 250854Z 16007KT 20/19 A2998 RMK A01 T01980186  RH  093%=      5-min Rain = 0
KMC5 250855Z 16007KT 20/19 A2998 RMK A01 T01980186  RH  093%=      5-min Rain = 0
KMC5 250856Z 16006KT 20/19 A2998 RMK A01 T01980186  RH  093%=      5-min Rain = 0
KMC5 250857Z 16007KT 20/19 A2998 RMK A01 T01980186  RH  093%=      5-min Rain = 0
KMC5 250858Z 17006KT 20/19 A2998 RMK A01 T01980186  RH  093%=      5-min Rain = 0
KMC5 250859Z 17007KT 20/19 A2998 RMK A01 T01970186  RH  093%=      5-min Rain = 0
KMC5 250900Z 17008KT 20/19 A2999 RMK A01 T01970187  RH  094%=      5-min Rain = 0
KMC5 250901Z 17007KT 20/19 A2999 RMK A01 T01970187  RH  094%=      5-min Rain = 0
KMC5 250902Z 17008KT 20/19 A2999 RMK A01 T01980188  RH  094%=      5-min Rain = 0
KMC5 250903Z 17009KT 20/19 A2999 RMK A01 T01980189  RH  094%=      5-min Rain = 0
KMC5 250904Z 17009KT 20/19 A2999 RMK A01 T01990189  RH  094%=      5-min Rain = 0
KMC5 250905Z 17008KT 20/19 A2999 RMK A01 T02000190  RH  094%=      5-min Rain = 0
KMC5 250906Z 17009KT 20/19 A2999 RMK A01 T02010190  RH  094%=      5-min Rain = 0
KMC5 250907Z 17010KT 20/19 A2999 RMK A01 T02010191  RH  094%=      5-min Rain = 0
KMC5 250908Z 17009KT 20/19 A2999 RMK A01 T02020192  RH  094%=      5-min Rain = 0
KMC5 250909Z 17010KT 20/19 A2999 RMK A01 T02020191  RH  093%=      5-min Rain = 0
KMC5 250910Z 17010KT 20/19 A2999 RMK A01 T02020192  RH  094%=      5-min Rain = 0
KMC5 250911Z 17009KT 20/19 A2999 RMK A01 T02030193  RH  094%=      5-min Rain = 0
KMC5 250912Z 17009KT 20/19 A2999 RMK A01 T02030192  RH  093%=      5-min Rain = 0
KMC5 250913Z 17008KT 20/19 A2999 RMK A01 T02030192  RH  093%=      5-min Rain = 0
KMC5 250914Z 17009KT 20/19 A2999 RMK A01 T02030192  RH  093%=      5-min Rain = 0
KMC5 250915Z 17008KT 20/19 A2999 RMK A01 T02030192  RH  093%=      5-min Rain = 0
KMC5 250916Z 17008KT 20/19 A2999 RMK A01 T02030192  RH  093%=      5-min Rain = 0
KMC5 250917Z 17008KT 20/19 A2999 RMK A01 T02030192  RH  093%=      5-min Rain = 0
KMC5 250918Z 17008KT 20/19 A2999 RMK A01 T02040192  RH  093%=      5-min Rain = 0
KMC5 250919Z 17008KT 20/19 A2999 RMK A01 T02040193  RH  093%=      5-min Rain = 0
KMC5 250920Z 17009KT 20/19 A2999 RMK A01 T02030193  RH  094%=      5-min Rain = 0
KMC5 250921Z 17009KT 20/19 A2999 RMK A01 T02040193  RH  094%=      5-min Rain = 0
KMC5 250922Z 17009KT 20/19 A2999 RMK A01 T02040194  RH  094%=      5-min Rain = 0
KMC5 250923Z 16008KT 20/19 A2999 RMK A01 T02040194  RH  094%=      5-min Rain = 0
KMC5 250924Z 17008KT 20/19 A2999 RMK A01 T02040194  RH  094%=      5-min Rain = 0
KMC5 250925Z 16008KT 20/19 A2999 RMK A01 T02040194  RH  094%=      5-min Rain = 0
KMC5 250926Z 16009KT 20/19 A2999 RMK A01 T02040194  RH  094%=      5-min Rain = 0
KMC5 250927Z 16009KT 20/19 A2999 RMK A01 T02040194  RH  094%=      5-min Rain = 0
KMC5 250928Z 16010KT 20/19 A2999 RMK A01 T02040194  RH  094%=      5-min Rain = 0
KMC5 250929Z 16009KT 21/20 A2999 RMK A01 T02050195  RH  094%=      5-min Rain = 0
KMC5 250930Z 16009KT 21/19 A2999 RMK A01 T02050194  RH  094%=      5-min Rain = 0
KMC5 250931Z 16008KT 21/20 A2999 RMK A01 T02050195  RH  094%=      5-min Rain = 0
KMC5 250932Z 16008KT 21/19 A2999 RMK A01 T02050194  RH  094%=      5-min Rain = 0
KMC5 250933Z 16008KT 21/20 A2999 RMK A01 T02050195  RH  094%=      5-min Rain = 0
KMC5 250934Z 17008KT 20/20 A2999 RMK A01 T02040195  RH  094%=      5-min Rain = 0
KMC5 250935Z 17008KT 20/20 A2999 RMK A01 T02040195  RH  094%=      5-min Rain = 0
KMC5 250936Z 17008KT 21/20 A2999 RMK A01 T02050195  RH  094%=      5-min Rain = 0
KMC5 250937Z 17009KT 20/20 A2999 RMK A01 T02040195  RH  094%=      5-min Rain = 0
KMC5 250938Z 17009KT 20/19 A2999 RMK A01 T02040194  RH  094%=      5-min Rain = 0
KMC5 250939Z 17008KT 20/20 A2999 RMK A01 T02040195  RH  094%=      5-min Rain = 0
KMC5 250940Z 17008KT 20/20 A2999 RMK A01 T02040195  RH  095%=      5-min Rain = 0
KMC5 250941Z 16007KT 20/20 A2999 RMK A01 T02040195  RH  095%=      5-min Rain = 0
KMC5 250942Z 16007KT 20/20 A2999 RMK A01 T02040195  RH  095%=      5-min Rain = 0
KMC5 250943Z 16009KT 20/20 A2999 RMK A01 T02040195  RH  095%=      5-min Rain = 0
KMC5 250944Z 16008KT 20/20 A2999 RMK A01 T02040196  RH  095%=      5-min Rain = 0
KMC5 250945Z 15007KT 20/20 A2999 RMK A01 T02040196  RH  095%=      5-min Rain = 0
KMC5 250946Z 16008KT 20/20 A2999 RMK A01 T02040196  RH  095%=      5-min Rain = 0
KMC5 250947Z 15008KT 20/20 A2999 RMK A01 T02040196  RH  095%=      5-min Rain = 0
KMC5 250948Z 16008KT 20/20 A2999 RMK A01 T02040196  RH  095%=      5-min Rain = 0
KMC5 250949Z 17007KT 20/20 A2999 RMK A01 T02040196  RH  095%=      5-min Rain = 0
KMC5 250950Z 16007KT 20/20 A2999 RMK A01 T02040196  RH  095%=      5-min Rain = 0
KMC5 250951Z 17007KT 20/20 A2999 RMK A01 T02040196  RH  095%=      5-min Rain = 0
KMC5 250952Z 17008KT 20/20 A2999 RMK A01 T02040197  RH  095%=      5-min Rain = 0
KMC5 250953Z 16008KT 20/20 A30 RMK A01 T02040197  RH  095%=      5-min Rain = 0
KMC5 250954Z 16007KT 21/20 A30 RMK A01 T02050197  RH  095%=      5-min Rain = 0
KMC5 250955Z 16007KT 21/20 A30 RMK A01 T02050198  RH  095%=      5-min Rain = 0
KMC5 250956Z 17008KT 21/20 A30 RMK A01 T02050197  RH  095%=      5-min Rain = 0
KMC5 250957Z 17008KT 21/20 A30 RMK A01 T02050197  RH  095%=      5-min Rain = 0
KMC5 250958Z 17007KT 21/20 A30 RMK A01 T02050198  RH  096%=      5-min Rain = 0
KMC5 250959Z 16007KT 21/20 A30 RMK A01 T02060198  RH  096%=      5-min Rain = 0
KMC5 251000Z 16006KT 21/20 A30 RMK A01 T02050198  RH  096%=      5-min Rain = 0
KMC5 251001Z 16007KT 21/20 A30 RMK A01 T02050198  RH  096%=      5-min Rain = 0
KMC5 251002Z 16009KT 21/20 A2999 RMK A01 T02050198  RH  096%=      5-min Rain = 0
KMC5 251003Z 16010KT 21/20 A2999 RMK A01 T02050199  RH  096%=      5-min Rain = 0
KMC5 251004Z 16008KT 21/20 A2999 RMK A01 T02050198  RH  096%=      5-min Rain = 0
KMC5 251005Z 16008KT 21/20 A2999 RMK A01 T02050199  RH  096%=      5-min Rain = 0
KMC5 251006Z 16007KT 21/20 A2999 RMK A01 T02050199  RH  096%=      5-min Rain = 0
KMC5 251007Z 16008KT 21/20 A2999 RMK A01 T02050199  RH  096%=      5-min Rain = 0
KMC5 251008Z 16010KT 21/20 A30 RMK A01 T02050199  RH  096%=      5-min Rain = 0
KMC5 251009Z 16008KT 21/20 A30 RMK A01 T02050199  RH  096%=      5-min Rain = 0
KMC5 251010Z 16009KT 21/20 A2999 RMK A01 T02050199  RH  096%=      5-min Rain = 0
KMC5 251011Z 17011KT 21/20 A2999 RMK A01 T02050199  RH  096%=      5-min Rain = 0
KMC5 251012Z 15012KT 21/20 A2999 RMK A01 T02050199  RH  096%=      5-min Rain = 0
KMC5 251013Z 17012KT 21/20 A30 RMK A01 T02050199  RH  096%=      5-min Rain = 0
KMC5 251014Z 16009KT 21/20 A30 RMK A01 T02060199  RH  096%=      5-min Rain = 0
KMC5 251015Z 16008KT 21/20 A30 RMK A01 T02050199  RH  096%=      5-min Rain = 0
KMC5 251016Z 16008KT 21/20 A30 RMK A01 T02050199  RH  096%=      5-min Rain = 0
KMC5 251017Z 16007KT 21/20 A30 RMK A01 T02050199  RH  096%=      5-min Rain = 0
KMC5 251018Z 17007KT 21/20 A30 RMK A01 T02050199  RH  096%=      5-min Rain = 0
KMC5 251019Z 17008KT 21/20 A30 RMK A01 T02050199  RH  096%=      5-min Rain = 0
KMC5 251020Z 16008KT 21/20 A30 RMK A01 T02050199  RH  096%=      5-min Rain = 0
KMC5 251021Z 17007KT 21/20 A30 RMK A01 T02050199  RH  096%=      5-min Rain = 0
KMC5 251022Z 16007KT 21/20 A30 RMK A01 T02050199  RH  097%=      5-min Rain = 0
KMC5 251023Z 16007KT 21/20 A30 RMK A01 T02050200  RH  097%=      5-min Rain = 0
KMC5 251024Z 16009KT 21/20 A30 RMK A01 T02050199  RH  097%=      5-min Rain = 0
KMC5 251025Z 15010KT 21/20 A30 RMK A01 T02050199  RH  097%=      5-min Rain = 0
KMC5 251026Z 16010KT 21/20 A30 RMK A01 T02050199  RH  097%=      5-min Rain = 0
KMC5 251027Z 16010KT 21/20 A30 RMK A01 T02050200  RH  097%=      5-min Rain = 0
KMC5 251028Z 16009KT 21/20 A30 RMK A01 T02050199  RH  097%=      5-min Rain = 0
KMC5 251029Z 17009KT 20/20 A30 RMK A01 T02040199  RH  097%=      5-min Rain = 0
KMC5 251030Z 16008KT 20/20 A30 RMK A01 T02040199  RH  097%=      5-min Rain = 0
KMC5 251031Z 16007KT 20/20 A30 RMK A01 T02040199  RH  097%=      5-min Rain = 0
KMC5 251032Z 15008KT 20/20 A30 RMK A01 T02040199  RH  097%=      5-min Rain = 0
KMC5 251033Z 16008KT 20/20 A30 RMK A01 T02040199  RH  097%=      5-min Rain = 0
KMC5 251034Z 16008KT 20/20 A30 RMK A01 T02040199  RH  097%=      5-min Rain = 0
KMC5 251035Z 16007KT 20/20 A30 RMK A01 T02040199  RH  097%=      5-min Rain = 0
KMC5 251036Z 16008KT 20/20 A30 RMK A01 T02040199  RH  097%=      5-min Rain = 0
KMC5 251037Z 16008KT 20/20 A30 RMK A01 T02040199  RH  097%=      5-min Rain = 0
KMC5 251038Z 16007KT 20/20 A30 RMK A01 T02040199  RH  097%=      5-min Rain = 0
KMC5 251039Z 16007KT 20/20 A30 RMK A01 T02040200  RH  097%=      5-min Rain = 0
KMC5 251040Z 16007KT 20/20 A30 RMK A01 T02040199  RH  097%=      5-min Rain = 0
KMC5 251041Z 17008KT 20/20 A30 RMK A01 T02030199  RH  097%=      5-min Rain = 0
KMC5 251042Z 17009KT 20/20 A30 RMK A01 T02040199  RH  097%=      5-min Rain = 0
KMC5 251043Z 16008KT 20/20 A30 RMK A01 T02030199  RH  097%=      5-min Rain = 0
KMC5 251044Z 17006KT 20/20 A30 RMK A01 T02040199  RH  097%=      5-min Rain = 0
KMC5 251045Z 16006KT 20/20 A30 RMK A01 T02040199  RH  097%=      5-min Rain = 0
KMC5 251046Z 16008KT 20/20 A30 RMK A01 T02040199  RH  097%=      5-min Rain = 0
KMC5 251047Z 16009KT 20/20 A30 RMK A01 T02040199  RH  097%=      5-min Rain = 0
KMC5 251048Z 16010KT 20/20 A30 RMK A01 T02040199  RH  097%=      5-min Rain = 0
KMC5 251049Z 16009KT 20/20 A30 RMK A01 T02030199  RH  097%=      5-min Rain = 0
KMC5 251050Z 16008KT 20/20 A30 RMK A01 T02040199  RH  097%=      5-min Rain = 0
KMC5 251051Z 16008KT 20/20 A30 RMK A01 T02040199  RH  097%=      5-min Rain = 0
KMC5 251052Z 16008KT 20/20 A30 RMK A01 T02040199  RH  097%=      5-min Rain = 0
KMC5 251053Z 16009KT 20/20 A30 RMK A01 T02030198  RH  097%=      5-min Rain = 0
KMC5 251054Z 17008KT 20/20 A30 RMK A01 T02030198  RH  097%=      5-min Rain = 0
KMC5 251055Z 17009KT 20/20 A30 RMK A01 T02030198  RH  097%=      5-min Rain = 0
KMC5 251056Z 16009KT 20/20 A30 RMK A01 T02030198  RH  097%=      5-min Rain = 0
KMC5 251057Z 16008KT 20/20 A30 RMK A01 T02030198  RH  097%=      5-min Rain = 0
KMC5 251058Z 16010KT 20/20 A30 RMK A01 T02030198  RH  097%=      5-min Rain = 0
KMC5 251059Z 15010KT 20/20 A30 RMK A01 T02030198  RH  097%=      5-min Rain = 0
KMC5 251100Z 15011KT 20/20 A30 RMK A01 T02030198  RH  097%=      5-min Rain = 0
KMC5 251101Z 16010KT 20/20 A30 RMK A01 T02030198  RH  097%=      5-min Rain = 0
KMC5 251102Z 16010KT 20/20 A30 RMK A01 T02030198  RH  097%=      5-min Rain = 0
KMC5 251103Z 17010KT 20/20 A30 RMK A01 T02020197  RH  097%=      5-min Rain = 0
KMC5 251104Z 17010KT 20/20 A30 RMK A01 T02030198  RH  097%=      5-min Rain = 0
KMC5 251105Z 17008KT 20/20 A30 RMK A01 T02030198  RH  097%=      5-min Rain = 0
KMC5 251106Z 17007KT 20/20 A30 RMK A01 T02030198  RH  097%=      5-min Rain = 0
KMC5 251107Z 17007KT 20/20 A30 RMK A01 T02030198  RH  097%=      5-min Rain = 0
KMC5 251108Z 16008KT 20/20 A30 RMK A01 T02030198  RH  097%=      5-min Rain = 0
KMC5 251109Z 17009KT 20/20 A30 RMK A01 T02030198  RH  097%=      5-min Rain = 0
KMC5 251110Z 17008KT 20/20 A30 RMK A01 T02030198  RH  097%=      5-min Rain = 0
KMC5 251111Z 16007KT 20/20 A30 RMK A01 T02030198  RH  097%=      5-min Rain = 0
KMC5 251112Z 15007KT 20/20 A30 RMK A01 T02030198  RH  097%=      5-min Rain = 0
KMC5 251113Z 15009KT 20/20 A30 RMK A01 T02030198  RH  097%=      5-min Rain = 0
KMC5 251114Z 16008KT 20/20 A30 RMK A01 T02030198  RH  097%=      5-min Rain = 0
KMC5 251115Z 16007KT 20/20 A30 RMK A01 T02030198  RH  097%=      5-min Rain = 0
KMC5 251116Z 15006KT 20/20 A30 RMK A01 T02030198  RH  097%=      5-min Rain = 0
KMC5 251117Z 16007KT 20/20 A30 RMK A01 T02030198  RH  097%=      5-min Rain = 0
KMC5 251118Z 15005KT 20/20 A30 RMK A01 T02030198  RH  097%=      5-min Rain = 0
KMC5 251119Z 16005KT 20/20 A30 RMK A01 T02030198  RH  097%=      5-min Rain = 0
KMC5 251120Z 16006KT 20/20 A3001 RMK A01 T02030198  RH  097%=      5-min Rain = 0
KMC5 251121Z 16007KT 20/20 A3001 RMK A01 T02030198  RH  097%=      5-min Rain = 0
KMC5 251122Z 16006KT 20/20 A3001 RMK A01 T02030198  RH  097%=      5-min Rain = 0
KMC5 251123Z 16006KT 20/20 A3001 RMK A01 T02030198  RH  097%=      5-min Rain = 0
KMC5 251124Z 16008KT 20/20 A3001 RMK A01 T02030198  RH  097%=      5-min Rain = 0
KMC5 251125Z 15008KT 20/20 A3001 RMK A01 T02030198  RH  097%=      5-min Rain = 0
KMC5 251126Z 16008KT 20/20 A3001 RMK A01 T02030198  RH  097%=      5-min Rain = 0
KMC5 251127Z 16005KT 20/20 A3001 RMK A01 T02030198  RH  097%=      5-min Rain = 0
KMC5 251128Z 15005KT 20/20 A3001 RMK A01 T02030198  RH  097%=      5-min Rain = 0
KMC5 251129Z 16006KT 20/20 A3001 RMK A01 T02030198  RH  097%=      5-min Rain = 0
KMC5 251130Z 16007KT 20/20 A3001 RMK A01 T02030198  RH  097%=      5-min Rain = 0
KMC5 251131Z 16007KT 20/20 A3001 RMK A01 T02030198  RH  097%=      5-min Rain = 0
KMC5 251132Z 16008KT 20/20 A3001 RMK A01 T02030198  RH  097%=      5-min Rain = 0
KMC5 251133Z 16008KT 20/20 A3001 RMK A01 T02030198  RH  097%=      5-min Rain = 0
KMC5 251134Z 16007KT 20/20 A3001 RMK A01 T02030197  RH  097%=      5-min Rain = 0
KMC5 251135Z 16006KT 20/20 A3001 RMK A01 T02030197  RH  097%=      5-min Rain = 0
KMC5 251136Z 15005KT 20/20 A3001 RMK A01 T02030197  RH  097%=      5-min Rain = 0
KMC5 251137Z 15006KT 20/20 A3001 RMK A01 T02030197  RH  097%=      5-min Rain = 0
KMC5 251138Z 16007KT 20/20 A3001 RMK A01 T02020197  RH  097%=      5-min Rain = 0
KMC5 251139Z 17007KT 20/20 A3001 RMK A01 T02030198  RH  097%=      5-min Rain = 0
KMC5 251140Z 16006KT 20/20 A3001 RMK A01 T02030197  RH  097%=      5-min Rain = 0
KMC5 251141Z 15008KT 20/20 A3001 RMK A01 T02030197  RH  097%=      5-min Rain = 0
KMC5 251142Z 16008KT 20/20 A3001 RMK A01 T02030197  RH  097%=      5-min Rain = 0
KMC5 251143Z 15008KT 20/20 A3001 RMK A01 T02030197  RH  097%=      5-min Rain = 0
KMC5 251144Z 15009KT 20/20 A3001 RMK A01 T02030198  RH  097%=      5-min Rain = 0
KMC5 251145Z 15009KT 20/20 A3001 RMK A01 T02020197  RH  097%=      5-min Rain = 0
KMC5 251146Z 16008KT 20/20 A3001 RMK A01 T02020197  RH  097%=      5-min Rain = 0
KMC5 251147Z 16010KT 20/20 A3001 RMK A01 T02020196  RH  097%=      5-min Rain = 0
KMC5 251148Z 17010KT 20/20 A3001 RMK A01 T02020196  RH  097%=      5-min Rain = 0
KMC5 251149Z 17009KT 20/20 A3002 RMK A01 T02010196  RH  097%=      5-min Rain = 0
KMC5 251150Z 17009KT 20/20 A3002 RMK A01 T02010195  RH  097%=      5-min Rain = 0
KMC5 251151Z 17009KT 20/20 A3002 RMK A01 T02010196  RH  097%=      5-min Rain = 0
KMC5 251152Z 16009KT 20/20 A3002 RMK A01 T02010196  RH  097%=      5-min Rain = 0
KMC5 251153Z 16009KT 20/20 A3002 RMK A01 T02010196  RH  097%=      5-min Rain = 0
KMC5 251154Z 16009KT 20/20 A3002 RMK A01 T02010196  RH  097%=      5-min Rain = 0
KMC5 251155Z 17007KT 20/20 A3002 RMK A01 T02010196  RH  097%=      5-min Rain = 0
KMC5 251156Z 16007KT 20/20 A3002 RMK A01 T02010197  RH  097%=      5-min Rain = 0
KMC5 251157Z 17006KT 20/20 A3002 RMK A01 T02010196  RH  097%=      5-min Rain = 0
KMC5 251158Z 17006KT 20/20 A3002 RMK A01 T02010197  RH  097%=      5-min Rain = 0
KMC5 251159Z 17008KT 20/20 A3002 RMK A01 T02010197  RH  097%=      5-min Rain = 0
KMC5 251200Z 18008KT 20/20 A3002 RMK A01 T02000196  RH  097%=      5-min Rain = 0
KMC5 251201Z 18007KT 20/20 A3002 RMK A01 T02000196  RH  097%=      5-min Rain = 0
KMC5 251202Z 18005KT 20/20 A3002 RMK A01 T02000196  RH  097%=      5-min Rain = 0
KMC5 251203Z 18005KT 20/20 A3002 RMK A01 T02000196  RH  097%=      5-min Rain = 0
KMC5 251204Z 18005KT 20/20 A3002 RMK A01 T02000196  RH  097%=      5-min Rain = 0
KMC5 251205Z 18008KT 20/20 A3002 RMK A01 T02000196  RH  097%=      5-min Rain = 0
KMC5 251206Z 19007KT 20/20 A3002 RMK A01 T02000196  RH  098%=      5-min Rain = 0
KMC5 251207Z 18007KT 20/20 A3002 RMK A01 T02000196  RH  097%=      5-min Rain = 0
KMC5 251208Z 17006KT 20/20 A3002 RMK A01 T02000196  RH  097%=      5-min Rain = 0
KMC5 251209Z 17006KT 20/20 A3002 RMK A01 T02000196  RH  097%=      5-min Rain = 0
KMC5 251210Z 17006KT 20/20 A3002 RMK A01 T02000196  RH  097%=      5-min Rain = 0
KMC5 251211Z 16006KT 20/20 A3002 RMK A01 T02000196  RH  097%=      5-min Rain = 0
KMC5 251212Z 16006KT 20/20 A3002 RMK A01 T02000196  RH  097%=      5-min Rain = 0
KMC5 251213Z 17007KT 20/20 A3002 RMK A01 T02000196  RH  097%=      5-min Rain = 0
KMC5 251214Z 18009KT 20/20 A3002 RMK A01 T02010196  RH  097%=      5-min Rain = 0
KMC5 251215Z 16008KT 20/20 A3002 RMK A01 T02000196  RH  097%=      5-min Rain = 0
KMC5 251216Z 17007KT 20/20 A3002 RMK A01 T02000196  RH  097%=      5-min Rain = 0
KMC5 251217Z 17008KT 20/20 A3002 RMK A01 T02000196  RH  097%=      5-min Rain = 0
KMC5 251218Z 18008KT 20/20 A3002 RMK A01 T02000196  RH  097%=      5-min Rain = 0
KMC5 251219Z 19008KT 20/20 A3002 RMK A01 T02000196  RH  097%=      5-min Rain = 0
KMC5 251220Z 19008KT 20/20 A3002 RMK A01 T02000196  RH  097%=      5-min Rain = 0
KMC5 251221Z 19008KT 20/20 A3003 RMK A01 T02000195  RH  097%=      5-min Rain = 0
KMC5 251222Z 18008KT 20/20 A3003 RMK A01 T02000196  RH  097%=      5-min Rain = 0
KMC5 251223Z 18009KT 20/20 A3003 RMK A01 T02000196  RH  097%=      5-min Rain = 0
KMC5 251224Z 19009KT 20/20 A3003 RMK A01 T02010196  RH  097%=      5-min Rain = 0
KMC5 251225Z 18011KT 20/20 A3003 RMK A01 T02010196  RH  097%=      5-min Rain = 0
KMC5 251226Z 19010KT 20/20 A3003 RMK A01 T02010196  RH  097%=      5-min Rain = 0
KMC5 251227Z 19009KT 20/20 A3003 RMK A01 T02010195  RH  096%=      5-min Rain = 0
KMC5 251228Z 19010KT 20/19 A3003 RMK A01 T02010194  RH  096%=      5-min Rain = 0
KMC5 251229Z 19010KT 20/19 A3003 RMK A01 T02010193  RH  095%=      5-min Rain = 0
KMC5 251230Z 19010KT 20/19 A3003 RMK A01 T02010192  RH  095%=      5-min Rain = 0
KMC5 251231Z 19011KT 20/19 A3003 RMK A01 T02010192  RH  094%=      5-min Rain = 0
KMC5 251232Z 18011KT 20/19 A3003 RMK A01 T02010192  RH  094%=      5-min Rain = 0
KMC5 251233Z 19011KT 20/19 A3003 RMK A01 T02020192  RH  094%=      5-min Rain = 0
KMC5 251234Z 18010KT 20/19 A3003 RMK A01 T02030191  RH  093%=      5-min Rain = 0
KMC5 251235Z 19009KT 20/19 A3003 RMK A01 T02030192  RH  093%=      5-min Rain = 0
KMC5 251236Z 19010KT 20/19 A3003 RMK A01 T02040192  RH  093%=      5-min Rain = 0
KMC5 251237Z 19011KT 20/19 A3003 RMK A01 T02040192  RH  093%=      5-min Rain = 0
KMC5 251238Z 19010KT 20/19 A3003 RMK A01 T02040192  RH  092%=      5-min Rain = 0
KMC5 251239Z 19009KT 21/19 A3003 RMK A01 T02050192  RH  092%=      5-min Rain = 0
KMC5 251240Z 19009KT 21/19 A3003 RMK A01 T02060192  RH  092%=      5-min Rain = 0
KMC5 251241Z 19010KT 21/19 A3003 RMK A01 T02060192  RH  092%=      5-min Rain = 0
KMC5 251242Z 19010KT 21/19 A3003 RMK A01 T02070192  RH  091%=      5-min Rain = 0
KMC5 251243Z 19010KT 21/19 A3003 RMK A01 T02070192  RH  091%=      5-min Rain = 0
KMC5 251244Z 20009KT 21/19 A3003 RMK A01 T02060191  RH  091%=      5-min Rain = 0
KMC5 251245Z 20007KT 21/19 A3003 RMK A01 T02060191  RH  091%=      5-min Rain = 0
KMC5 251246Z 20010KT 21/19 A3003 RMK A01 T02050191  RH  092%=      5-min Rain = 0
KMC5 251247Z 19010KT 21/19 A3003 RMK A01 T02050191  RH  092%=      5-min Rain = 0
KMC5 251248Z 18010KT 21/19 A3003 RMK A01 T02060191  RH  091%=      5-min Rain = 0
KMC5 251249Z 20007KT 21/19 A3003 RMK A01 T02060191  RH  091%=      5-min Rain = 0
KMC5 251250Z 20009KT 21/19 A3003 RMK A01 T02080192  RH  091%=      5-min Rain = 0
KMC5 251251Z 21010KT 21/19 A3003 RMK A01 T02080191  RH  090%=      5-min Rain = 0
KMC5 251252Z 20010KT 21/19 A3003 RMK A01 T02080191  RH  090%=      5-min Rain = 0
KMC5 251253Z 19008KT 21/19 A3003 RMK A01 T02080191  RH  090%=      5-min Rain = 0
KMC5 251254Z 20008KT 21/19 A3003 RMK A01 T02090192  RH  090%=      5-min Rain = 0
KMC5 251255Z 20008KT 21/19 A3003 RMK A01 T02090192  RH  090%=      5-min Rain = 0
KMC5 251256Z 21008KT 21/19 A3004 RMK A01 T02090192  RH  090%=      5-min Rain = 0
KMC5 251257Z 20008KT 21/19 A3004 RMK A01 T02090191  RH  089%=      5-min Rain = 0
KMC5 251258Z 20010KT 21/19 A3004 RMK A01 T02090190  RH  089%=      5-min Rain = 0
KMC5 251259Z 19009KT 21/19 A3003 RMK A01 T02090189  RH  088%=      5-min Rain = 0
KMC5 251300Z 20010KT 21/19 A3004 RMK A01 T02090189  RH  088%=      5-min Rain = 0
KMC5 251301Z 20010KT 21/19 A3004 RMK A01 T02090188  RH  088%=      5-min Rain = 0
KMC5 251302Z 20008KT 21/19 A3004 RMK A01 T02090188  RH  088%=      5-min Rain = 0
KMC5 251303Z 19009KT 21/19 A3004 RMK A01 T02100189  RH  088%=      5-min Rain = 0
KMC5 251304Z 19009KT 21/19 A3004 RMK A01 T02100189  RH  088%=      5-min Rain = 0
KMC5 251305Z 19010KT 21/19 A3004 RMK A01 T02110190  RH  088%=      5-min Rain = 0
KMC5 251306Z 19009KT 21/19 A3004 RMK A01 T02110189  RH  088%=      5-min Rain = 0
KMC5 251307Z 19010KT 21/19 A3004 RMK A01 T02110189  RH  087%=      5-min Rain = 0
KMC5 251308Z 19009KT 21/19 A3004 RMK A01 T02110190  RH  088%=      5-min Rain = 0
KMC5 251309Z 20008KT 21/19 A3004 RMK A01 T02110190  RH  088%=      5-min Rain = 0
KMC5 251310Z 20007KT 21/19 A3004 RMK A01 T02110191  RH  088%=      5-min Rain = 0
KMC5 251311Z 20009KT 21/19 A3004 RMK A01 T02110191  RH  088%=      5-min Rain = 0
KMC5 251312Z 20009KT 21/19 A3004 RMK A01 T02110190  RH  088%=      5-min Rain = 0
KMC5 251313Z 20008KT 21/19 A3004 RMK A01 T02110190  RH  088%=      5-min Rain = 0
KMC5 251314Z 19009KT 21/19 A3004 RMK A01 T02110190  RH  088%=      5-min Rain = 0
KMC5 251315Z 19010KT 21/19 A3004 RMK A01 T02110190  RH  088%=      5-min Rain = 0
KMC5 251316Z 19010KT 21/19 A3004 RMK A01 T02100191  RH  088%=      5-min Rain = 0
KMC5 251317Z 20010KT 21/19 A3004 RMK A01 T02100190  RH  088%=      5-min Rain = 0
KMC5 251318Z 19009KT 21/19 A3004 RMK A01 T02090191  RH  089%=      5-min Rain = 0
KMC5 251319Z 19009KT 21/19 A3004 RMK A01 T02090190  RH  089%=      5-min Rain = 0
KMC5 251320Z 19009KT 21/19 A3004 RMK A01 T02090190  RH  089%=      5-min Rain = 0
KMC5 251321Z 18010KT 21/19 A3004 RMK A01 T02090190  RH  089%=      5-min Rain = 0
KMC5 251322Z 18009KT 21/19 A3004 RMK A01 T02100191  RH  089%=      5-min Rain = 0
KMC5 251323Z 18009KT 21/19 A3004 RMK A01 T02100191  RH  089%=      5-min Rain = 0
KMC5 251324Z 19008KT 21/19 A3004 RMK A01 T02110191  RH  088%=      5-min Rain = 0
KMC5 251325Z 18006KT 21/19 A3004 RMK A01 T02110193  RH  089%=      5-min Rain = 0
KMC5 251326Z 19008KT 21/19 A3004 RMK A01 T02140194  RH  088%=      5-min Rain = 0
KMC5 251327Z 18008KT 21/19 A3004 RMK A01 T02140193  RH  088%=      5-min Rain = 0
KMC5 251328Z 18009KT 22/19 A3004 RMK A01 T02150193  RH  087%=      5-min Rain = 0
KMC5 251329Z 18009KT 22/19 A3004 RMK A01 T02160194  RH  087%=      5-min Rain = 0
KMC5 251330Z 18009KT 22/19 A3004 RMK A01 T02150192  RH  087%=      5-min Rain = 0
KMC5 251331Z 18008KT 22/19 A3004 RMK A01 T02160192  RH  087%=      5-min Rain = 0
KMC5 251332Z 18008KT 22/19 A3004 RMK A01 T02160193  RH  087%=      5-min Rain = 0
KMC5 251333Z 19010KT 22/19 A3004 RMK A01 T02160193  RH  087%=      5-min Rain = 0
KMC5 251334Z 18009KT 22/19 A3004 RMK A01 T02160192  RH  086%=      5-min Rain = 0
KMC5 251335Z 18008KT 22/19 A3004 RMK A01 T02160193  RH  087%=      5-min Rain = 0
KMC5 251336Z 19008KT 22/19 A3004 RMK A01 T02170192  RH  086%=      5-min Rain = 0
KMC5 251337Z 19007KT 22/19 A3004 RMK A01 T02170193  RH  086%=      5-min Rain = 0
KMC5 251338Z 20008KT 22/19 A3004 RMK A01 T02190192  RH  085%=      5-min Rain = 0
KMC5 251339Z 19008KT 22/19 A3004 RMK A01 T02200191  RH  084%=      5-min Rain = 0
KMC5 251340Z 22008KT 22/19 A3004 RMK A01 T02200192  RH  084%=      5-min Rain = 0
KMC5 251341Z 21008KT 22/19 A3004 RMK A01 T02210191  RH  083%=      5-min Rain = 0
KMC5 251342Z 21010KT 22/19 A3004 RMK A01 T02210190  RH  082%=      5-min Rain = 0
KMC5 251343Z 22008KT 22/19 A3003 RMK A01 T02200189  RH  082%=      5-min Rain = 0
KMC5 251344Z 20008KT 22/19 A3003 RMK A01 T02200190  RH  083%=      5-min Rain = 0
KMC5 251345Z 20010KT 22/19 A3003 RMK A01 T02200190  RH  083%=      5-min Rain = 0
KMC5 251346Z 21010KT 22/19 A3003 RMK A01 T02200189  RH  083%=      5-min Rain = 0
KMC5 251347Z 21008KT 22/19 A3003 RMK A01 T02190190  RH  083%=      5-min Rain = 0
KMC5 251348Z 20008KT 22/19 A3004 RMK A01 T02210191  RH  083%=      5-min Rain = 0
KMC5 251349Z 20008KT 22/19 A3004 RMK A01 T02210190  RH  083%=      5-min Rain = 0
KMC5 251350Z 20007KT 22/19 A3004 RMK A01 T02220190  RH  082%=      5-min Rain = 0
KMC5 251351Z 21008KT 22/19 A3004 RMK A01 T02230189  RH  081%=      5-min Rain = 0
KMC5 251352Z 20008KT 22/19 A3004 RMK A01 T02230187  RH  080%=      5-min Rain = 0
KMC5 251353Z 19008KT 22/19 A3004 RMK A01 T02240188  RH  080%=      5-min Rain = 0
KMC5 251354Z 20007KT 22/19 A3004 RMK A01 T02240188  RH  080%=      5-min Rain = 0
KMC5 251355Z 20008KT 23/19 A3004 RMK A01 T02250186  RH  078%=      5-min Rain = 0
KMC5 251356Z 20009KT 23/19 A3004 RMK A01 T02260185  RH  078%=      5-min Rain = 0
KMC5 251357Z 20008KT 23/18 A3004 RMK A01 T02270183  RH  076%=      5-min Rain = 0
KMC5 251358Z 21007KT 23/18 A3004 RMK A01 T02280184  RH  076%=      5-min Rain = 0
KMC5 251359Z 21008KT 23/18 A3004 RMK A01 T02280181  RH  075%=      5-min Rain = 0
KMC5 251400Z 19007KT 23/19 A3004 RMK A01 T02280185  RH  076%=      5-min Rain = 0
KMC5 251401Z 21008KT 23/18 A3004 RMK A01 T02280183  RH  076%=      5-min Rain = 0
KMC5 251402Z 20006KT 23/19 A3004 RMK A01 T02290186  RH  077%=      5-min Rain = 0
KMC5 251403Z 20007KT 23/18 A3004 RMK A01 T02300184  RH  075%=      5-min Rain = 0
KMC5 251404Z 22006KT 23/18 A3004 RMK A01 T02300183  RH  075%=      5-min Rain = 0
KMC5 251405Z 21007KT 23/18 A3004 RMK A01 T02310182  RH  074%=      5-min Rain = 0
KMC5 251406Z 21006KT 23/18 A3004 RMK A01 T02310179  RH  073%=      5-min Rain = 0
KMC5 251407Z 22008KT 23/18 A3004 RMK A01 T02300182  RH  074%=      5-min Rain = 0
KMC5 251408Z 22008KT 23/18 A3004 RMK A01 T02310175  RH  070%=      5-min Rain = 0
KMC5 251409Z 23007KT 23/17 A3004 RMK A01 T02330174  RH  070%=      5-min Rain = 0
KMC5 251410Z 23007KT 23/18 A3004 RMK A01 T02330176  RH  071%=      5-min Rain = 0
KMC5 251411Z 24006KT 23/18 A3004 RMK A01 T02330182  RH  073%=      5-min Rain = 0
KMC5 251412Z 22006KT 23/18 A3004 RMK A01 T02340182  RH  072%=      5-min Rain = 0
KMC5 251413Z 23006KT 24/19 A3004 RMK A01 T02360185  RH  073%=      5-min Rain = 0
KMC5 251414Z 23008KT 24/18 A3004 RMK A01 T02370180  RH  071%=      5-min Rain = 0
KMC5 251415Z 20008KT 24/18 A3004 RMK A01 T02370180  RH  071%=      5-min Rain = 0
KMC5 251416Z 20007KT 24/17 A3004 RMK A01 T02360172  RH  067%=      5-min Rain = 0
KMC5 251417Z 23007KT 24/18 A3004 RMK A01 T02350175  RH  069%=      5-min Rain = 0
KMC5 251418Z 23008KT 24/17 A3004 RMK A01 T02350174  RH  069%=      5-min Rain = 0
KMC5 251419Z 23007KT 24/18 A3004 RMK A01 T02360176  RH  069%=      5-min Rain = 0
KMC5 251420Z 22006KT 24/18 A3004 RMK A01 T02360176  RH  069%=      5-min Rain = 0
KMC5 251421Z 22007KT 24/18 A3004 RMK A01 T02360177  RH  069%=      5-min Rain = 0
KMC5 251422Z 21008KT 24/17 A3004 RMK A01 T02380174  RH  067%=      5-min Rain = 0
KMC5 251423Z 21007KT 24/18 A3004 RMK A01 T02390176  RH  068%=      5-min Rain = 0
KMC5 251424Z 22006KT 24/18 A3004 RMK A01 T02390178  RH  068%=      5-min Rain = 0
KMC5 251425Z 21009KT 24/18 A3004 RMK A01 T02410175  RH  067%=      5-min Rain = 0
KMC5 251426Z 22009KT 24/17 A3004 RMK A01 T02410170  RH  065%=      5-min Rain = 0
KMC5 251427Z 23010KT 24/17 A3004 RMK A01 T02400170  RH  065%=      5-min Rain = 0
KMC5 251428Z 23008KT 24/17 A3004 RMK A01 T02390171  RH  066%=      5-min Rain = 0
KMC5 251429Z 22007KT 24/17 A3004 RMK A01 T02390171  RH  066%=      5-min Rain = 0
KMC5 251430Z 22008KT 24/17 A3004 RMK A01 T02390174  RH  067%=      5-min Rain = 0
KMC5 251431Z 22010KT 24/17 A3004 RMK A01 T02400171  RH  065%=      5-min Rain = 0
KMC5 251432Z 23010KT 24/17 A3004 RMK A01 T02410172  RH  065%=      5-min Rain = 0
KMC5 251433Z 23008KT 24/17 A3004 RMK A01 T02410170  RH  065%=      5-min Rain = 0
KMC5 251434Z 22010KT 24/17 A3004 RMK A01 T02410171  RH  065%=      5-min Rain = 0
KMC5 251435Z 23010KT 24/17 A3004 RMK A01 T02410170  RH  065%=      5-min Rain = 0
KMC5 251436Z 23009KT 24/17 A3004 RMK A01 T02410170  RH  064%=      5-min Rain = 0
KMC5 251437Z 24009KT 24/17 A3004 RMK A01 T02410170  RH  064%=      5-min Rain = 0
KMC5 251438Z 24009KT 24/17 A3004 RMK A01 T02420169  RH  064%=      5-min Rain = 0
KMC5 251439Z 24012KT 24/17 A3004 RMK A01 T02420171  RH  064%=      5-min Rain = 0
KMC5 251440Z 23010KT 24/17 A3004 RMK A01 T02430169  RH  064%=      5-min Rain = 0
KMC5 251441Z 24010KT 24/17 A3004 RMK A01 T02420171  RH  064%=      5-min Rain = 0
KMC5 251442Z 23010KT 24/17 A3004 RMK A01 T02420169  RH  064%=      5-min Rain = 0
KMC5 251443Z 24012KT 24/17 A3004 RMK A01 T02430169  RH  063%=      5-min Rain = 0
KMC5 251444Z 24012KT 24/17 A3004 RMK A01 T02440165  RH  061%=      5-min Rain = 0
KMC5 251445Z 25012KT 24/17 A3004 RMK A01 T02440165  RH  061%=      5-min Rain = 0
KMC5 251446Z 24011KT 24/17 A3004 RMK A01 T02440166  RH  062%=      5-min Rain = 0
KMC5 251447Z 24012KT 24/17 A3004 RMK A01 T02440166  RH  062%=      5-min Rain = 0
KMC5 251448Z 23011KT 24/17 A3003 RMK A01 T02430166  RH  062%=      5-min Rain = 0
KMC5 251449Z 24009KT 24/17 A3003 RMK A01 T02420165  RH  062%=      5-min Rain = 0
KMC5 251450Z 25010KT 24/17 A3003 RMK A01 T02420168  RH  063%=      5-min Rain = 0
KMC5 251451Z 25009KT 24/17 A3003 RMK A01 T02430170  RH  064%=      5-min Rain = 0
KMC5 251452Z 24010KT 24/17 A3003 RMK A01 T02440169  RH  063%=      5-min Rain = 0
KMC5 251453Z 23011KT 25/17 A3003 RMK A01 T02450172  RH  064%=      5-min Rain = 0
KMC5 251454Z 22012KT 25/17 A3003 RMK A01 T02460168  RH  062%=      5-min Rain = 0
KMC5 251455Z 23012KT 25/17 A3003 RMK A01 T02450166  RH  061%=      5-min Rain = 0
KMC5 251456Z 22011KT 25/17 A3003 RMK A01 T02450169  RH  062%=      5-min Rain = 0
KMC5 251457Z 24009KT 25/17 A3003 RMK A01 T02450167  RH  061%=      5-min Rain = 0
KMC5 251458Z 23007KT 25/17 A3003 RMK A01 T02460171  RH  063%=      5-min Rain = 0
KMC5 251459Z 24010KT 25/17 A3003 RMK A01 T02480169  RH  062%=      5-min Rain = 0
KMC5 251500Z 23011KT 25/17 A3003 RMK A01 T02480166  RH  061%=      5-min Rain = 0
KMC5 251501Z 23012KT 25/17 A3003 RMK A01 T02480165  RH  060%=      5-min Rain = 0
KMC5 251502Z 23015KT 25/16 A3003 RMK A01 T02490164  RH  059%=      5-min Rain = 0
KMC5 251503Z 23014KT 25/16 A3003 RMK A01 T02490162  RH  058%=      5-min Rain = 0
KMC5 251504Z 24011KT 25/17 A3003 RMK A01 T02480165  RH  060%=      5-min Rain = 0
KMC5 251505Z 24013KT 25/16 A3003 RMK A01 T02490164  RH  059%=      5-min Rain = 0
KMC5 251506Z 23012KT 25/16 A3003 RMK A01 T02500159  RH  057%=      5-min Rain = 0
KMC5 251507Z 23011KT 25/17 A3003 RMK A01 T02500165  RH  059%=      5-min Rain = 0
KMC5 251508Z 23012KT 25/16 A3003 RMK A01 T02510161  RH  057%=      5-min Rain = 0
KMC5 251509Z 23012KT 25/17 A3003 RMK A01 T02510166  RH  059%=      5-min Rain = 0
KMC5 251510Z 23013KT 25/16 A3003 RMK A01 T02530159  RH  056%=      5-min Rain = 0
KMC5 251511Z 23014KT 25/16 A3003 RMK A01 T02530157  RH  055%=      5-min Rain = 0
KMC5 251512Z 23014KT 25/16 A3003 RMK A01 T02520161  RH  057%=      5-min Rain = 0
KMC5 251513Z 22012KT 25/16 A3003 RMK A01 T02520162  RH  057%=      5-min Rain = 0
KMC5 251514Z 21011KT 25/16 A3003 RMK A01 T02520159  RH  056%=      5-min Rain = 0
KMC5 251515Z 21010KT 25/17 A3003 RMK A01 T02520165  RH  058%=      5-min Rain = 0
KMC5 251516Z 22009KT 26/17 A3003 RMK A01 T02550170  RH  059%=      5-min Rain = 0
KMC5 251517Z 22010KT 26/16 A3003 RMK A01 T02570164  RH  056%=      5-min Rain = 0
KMC5 251518Z 22009KT 26/17 A3003 RMK A01 T02570165  RH  057%=      5-min Rain = 0
KMC5 251519Z 21011KT 26/16 A3003 RMK A01 T02570164  RH  056%=      5-min Rain = 0
KMC5 251520Z 22014KT 26/16 A3003 RMK A01 T02580163  RH  056%=      5-min Rain = 0
KMC5 251521Z 23011KT 26/16 A3004 RMK A01 T02570158  RH  054%=      5-min Rain = 0
KMC5 251522Z 23012KT 26/16 A3004 RMK A01 T02560160  RH  055%=      5-min Rain = 0
KMC5 251523Z 23010KT 26/16 A3004 RMK A01 T02560161  RH  056%=      5-min Rain = 0
KMC5 251524Z 23009KT 26/17 A3003 RMK A01 T02570166  RH  057%=      5-min Rain = 0
KMC5 251525Z 22010KT 26/16 A3003 RMK A01 T02580156  RH  053%=      5-min Rain = 0
KMC5 251526Z 21011KT 26/16 A3003 RMK A01 T02580163  RH  056%=      5-min Rain = 0
KMC5 251527Z 21014KT 26/16 A3003 RMK A01 T02590159  RH  054%=      5-min Rain = 0
KMC5 251528Z 22012KT 26/16 A3003 RMK A01 T02590158  RH  054%=      5-min Rain = 0
KMC5 251529Z 22013KT 26/16 A3004 RMK A01 T02590162  RH  055%=      5-min Rain = 0
KMC5 251530Z 21010KT 26/16 A3004 RMK A01 T02600160  RH  054%=      5-min Rain = 0
KMC5 251531Z 21009KT 26/16 A3004 RMK A01 T02610161  RH  054%=      5-min Rain = 0
KMC5 251532Z 21009KT 26/16 A3004 RMK A01 T02600161  RH  054%=      5-min Rain = 0
KMC5 251533Z 22008KT 26/16 A3004 RMK A01 T02600160  RH  054%=      5-min Rain = 0
KMC5 251534Z 22008KT 26/16 A3004 RMK A01 T02590162  RH  055%=      5-min Rain = 0
KMC5 251535Z 20010KT 26/17 A3004 RMK A01 T02610166  RH  056%=      5-min Rain = 0
KMC5 251536Z 21013KT 26/16 A3004 RMK A01 T02630161  RH  054%=      5-min Rain = 0
KMC5 251537Z 22012KT 26/16 A3004 RMK A01 T02630162  RH  054%=      5-min Rain = 0
KMC5 251538Z 21010KT 26/16 A3004 RMK A01 T02620162  RH  054%=      5-min Rain = 0
KMC5 251539Z 21011KT 26/16 A3004 RMK A01 T02630162  RH  054%=      5-min Rain = 0
KMC5 251540Z 21010KT 26/16 A3004 RMK A01 T02630162  RH  054%=      5-min Rain = 0
KMC5 251541Z 21012KT 26/16 A3004 RMK A01 T02630158  RH  053%=      5-min Rain = 0
KMC5 251542Z 20012KT 26/16 A3004 RMK A01 T02630156  RH  052%=      5-min Rain = 0
KMC5 251543Z 20012KT 26/16 A3004 RMK A01 T02620156  RH  052%=      5-min Rain = 0
KMC5 251544Z 21012KT 26/16 A3004 RMK A01 T02610155  RH  052%=      5-min Rain = 0
KMC5 251545Z 21011KT 26/16 A3004 RMK A01 T02620159  RH  053%=      5-min Rain = 0
KMC5 251546Z 20011KT 26/16 A3004 RMK A01 T02640162  RH  053%=      5-min Rain = 0
KMC5 251547Z 21013KT 27/16 A3004 RMK A01 T02660157  RH  051%=      5-min Rain = 0
KMC5 251548Z 21009KT 26/15 A3004 RMK A01 T02640149  RH  049%=      5-min Rain = 0
KMC5 251549Z 20009KT 26/16 A3004 RMK A01 T02610155  RH  052%=      5-min Rain = 0
KMC5 251550Z 20011KT 26/16 A3004 RMK A01 T02620155  RH  052%=      5-min Rain = 0
KMC5 251551Z 22010KT 26/16 A3004 RMK A01 T02640158  RH  052%=      5-min Rain = 0
KMC5 251552Z 23013KT 27/16 A3004 RMK A01 T02660156  RH  051%=      5-min Rain = 0
KMC5 251553Z 22013KT 27/15 A3004 RMK A01 T02660152  RH  050%=      5-min Rain = 0
KMC5 251554Z 23013KT 27/15 A3004 RMK A01 T02660154  RH  050%=      5-min Rain = 0
KMC5 251555Z 24013KT 27/15 A3004 RMK A01 T02660151  RH  049%=      5-min Rain = 0
KMC5 251556Z 23011KT 27/15 A3004 RMK A01 T02650154  RH  050%=      5-min Rain = 0
KMC5 251557Z 22009KT 27/15 A3004 RMK A01 T02650152  RH  050%=      5-min Rain = 0
KMC5 251558Z 22012KT 27/16 A3004 RMK A01 T02650155  RH  051%=      5-min Rain = 0
KMC5 251559Z 22011KT 27/15 A3004 RMK A01 T02650154  RH  051%=      5-min Rain = 0
KMC5 251600Z 22013KT 27/15 A3004 RMK A01 T02650154  RH  050%=      5-min Rain = 0
KMC5 251601Z 21013KT 27/15 A3004 RMK A01 T02650154  RH  050%=      5-min Rain = 0
KMC5 251602Z 22011KT 27/15 A3004 RMK A01 T02660153  RH  050%=      5-min Rain = 0
KMC5 251603Z 22011KT 27/16 A3004 RMK A01 T02660155  RH  050%=      5-min Rain = 0
KMC5 251604Z 22011KT 27/15 A3004 RMK A01 T02670153  RH  050%=      5-min Rain = 0
KMC5 251605Z 21011KT 27/16 A3004 RMK A01 T02680160  RH  051%=      5-min Rain = 0
KMC5 251606Z 20012KT 27/16 A3004 RMK A01 T02690156  RH  050%=      5-min Rain = 0
KMC5 251607Z 21011KT 27/16 A3004 RMK A01 T02680155  RH  050%=      5-min Rain = 0
KMC5 251608Z 21009KT 27/16 A3004 RMK A01 T02660156  RH  051%=      5-min Rain = 0
KMC5 251609Z 20007KT 27/16 A3004 RMK A01 T02650156  RH  051%=      5-min Rain = 0
KMC5 251610Z 21007KT 27/16 A3004 RMK A01 T02650160  RH  053%=      5-min Rain = 0
KMC5 251611Z 21006KT 27/16 A3004 RMK A01 T02660162  RH  053%=      5-min Rain = 0
KMC5 251612Z 22007KT 27/16 A3004 RMK A01 T02670162  RH  053%=      5-min Rain = 0
KMC5 251613Z 22006KT 27/16 A3004 RMK A01 T02670162  RH  052%=      5-min Rain = 0
KMC5 251614Z 21006KT 27/16 A3004 RMK A01 T02670163  RH  053%=      5-min Rain = 0
KMC5 251615Z 21008KT 27/17 A3004 RMK A01 T02680168  RH  054%=      5-min Rain = 0
KMC5 251616Z 22012KT 27/16 A3004 RMK A01 T02720156  RH  049%=      5-min Rain = 0
KMC5 251617Z 22011KT 27/15 A3004 RMK A01 T02720154  RH  049%=      5-min Rain = 0
KMC5 251618Z 23011KT 27/16 A3004 RMK A01 T02710157  RH  049%=      5-min Rain = 0
KMC5 251619Z 25009KT 27/15 A3004 RMK A01 T02710149  RH  047%=      5-min Rain = 0
KMC5 251620Z 23009KT 27/16 A3004 RMK A01 T02700156  RH  050%=      5-min Rain = 0
KMC5 251621Z 22008KT 27/16 A3004 RMK A01 T02710157  RH  050%=      5-min Rain = 0
KMC5 251622Z 22009KT 27/15 A3004 RMK A01 T02720151  RH  048%=      5-min Rain = 0
KMC5 251623Z 22006KT 27/15 A3004 RMK A01 T02700154  RH  049%=      5-min Rain = 0
KMC5 251624Z 20006KT 27/16 A3004 RMK A01 T02700158  RH  050%=      5-min Rain = 0
KMC5 251625Z 22008KT 27/16 A3005 RMK A01 T02710162  RH  051%=      5-min Rain = 0
KMC5 251626Z 21010KT 27/16 A3005 RMK A01 T02740158  RH  049%=      5-min Rain = 0
KMC5 251627Z 21009KT 27/15 A3005 RMK A01 T02740150  RH  047%=      5-min Rain = 0
KMC5 251628Z 20010KT 27/16 A3004 RMK A01 T02730156  RH  049%=      5-min Rain = 0
KMC5 251629Z 20008KT 27/15 A3004 RMK A01 T02740149  RH  047%=      5-min Rain = 0
KMC5 251630Z 20006G11KT 27/15 A3004 RMK A01 T02720152  RH  048%=      5-min Rain = 0
KMC5 251631Z 21010KT 27/16 A3004 RMK A01 T02740155  RH  048%=      5-min Rain = 0
KMC5 251632Z 22011KT 28/15 A3005 RMK A01 T02750152  RH  047%=      5-min Rain = 0
KMC5 251633Z 21010KT 28/15 A3005 RMK A01 T02750148  RH  046%=      5-min Rain = 0
KMC5 251634Z 22010KT 27/15 A3005 RMK A01 T02740150  RH  047%=      5-min Rain = 0
KMC5 251635Z 23012KT 27/15 A3005 RMK A01 T02740147  RH  046%=      5-min Rain = 0
KMC5 251636Z 23009KT 27/15 A3005 RMK A01 T02730148  RH  046%=      5-min Rain = 0
KMC5 251637Z 22009KT 27/15 A3004 RMK A01 T02730149  RH  047%=      5-min Rain = 0
KMC5 251638Z 22007KT 27/15 A3004 RMK A01 T02730153  RH  048%=      5-min Rain = 0
KMC5 251639Z 23008KT 28/16 A3004 RMK A01 T02750156  RH  048%=      5-min Rain = 0
KMC5 251640Z 23009KT 28/15 A3004 RMK A01 T02770150  RH  046%=      5-min Rain = 0
KMC5 251641Z 21011KT 28/16 A3004 RMK A01 T02760156  RH  048%=      5-min Rain = 0
KMC5 251642Z 21010KT 28/16 A3004 RMK A01 T02760155  RH  048%=      5-min Rain = 0
KMC5 251643Z 20008KT 28/15 A3004 RMK A01 T02770149  RH  045%=      5-min Rain = 0
KMC5 251644Z 22007KT 28/16 A3004 RMK A01 T02760156  RH  048%=      5-min Rain = 0
KMC5 251645Z 22008KT 28/16 A3004 RMK A01 T02760158  RH  048%=      5-min Rain = 0
KMC5 251646Z 20009KT 28/16 A3004 RMK A01 T02790160  RH  048%=      5-min Rain = 0
KMC5 251647Z 18009KT 28/15 A3004 RMK A01 T02790153  RH  046%=      5-min Rain = 0
KMC5 251648Z 18007KT 28/16 A3004 RMK A01 T02780155  RH  047%=      5-min Rain = 0
KMC5 251649Z 20010KT 28/16 A3004 RMK A01 T02780158  RH  048%=      5-min Rain = 0
KMC5 251650Z 19011KT 28/15 A3004 RMK A01 T02780153  RH  046%=      5-min Rain = 0
KMC5 251651Z 19009KT 28/16 A3004 RMK A01 T02790157  RH  048%=      5-min Rain = 0
KMC5 251652Z 21010KT 28/16 A3004 RMK A01 T02790159  RH  048%=      5-min Rain = 0
KMC5 251653Z 22008KT 28/15 A3004 RMK A01 T02800153  RH  046%=      5-min Rain = 0
KMC5 251654Z 21008KT 28/16 A3004 RMK A01 T02800155  RH  047%=      5-min Rain = 0
KMC5 251655Z 20008KT 28/15 A3004 RMK A01 T02800151  RH  046%=      5-min Rain = 0
KMC5 251656Z 21008KT 28/15 A3004 RMK A01 T02800154  RH  046%=      5-min Rain = 0
KMC5 251657Z 21006KT 28/15 A3004 RMK A01 T02790147  RH  045%=      5-min Rain = 0
KMC5 251658Z 22007KT 28/15 A3004 RMK A01 T02770151  RH  046%=      5-min Rain = 0
KMC5 251659Z 22007KT 28/16 A3004 RMK A01 T02770157  RH  048%=      5-min Rain = 0
KMC5 251700Z 21005KT 28/16 A3004 RMK A01 T02790163  RH  049%=      5-min Rain = 0
KMC5 251701Z 22005KT 28/16 A3004 RMK A01 T02810161  RH  048%=      5-min Rain = 0
KMC5 251702Z 21008KT 28/16 A3004 RMK A01 T02820158  RH  047%=      5-min Rain = 0
KMC5 251703Z 22008KT 28/15 A3004 RMK A01 T02820152  RH  045%=      5-min Rain = 0
KMC5 251704Z 23007KT 28/15 A3004 RMK A01 T02800151  RH  046%=      5-min Rain = 0
KMC5 251705Z 20006KT 28/16 A3004 RMK A01 T02790158  RH  048%=      5-min Rain = 0
KMC5 251706Z 19006KT 28/15 A3004 RMK A01 T02790152  RH  046%=      5-min Rain = 0
KMC5 251707Z 17006KT 28/16 A3004 RMK A01 T02790162  RH  049%=      5-min Rain = 0
KMC5 251708Z 15006KT 28/16 A3004 RMK A01 T02800161  RH  048%=      5-min Rain = 0
KMC5 251709Z 17002KT 28/15 A3004 RMK A01 T02810152  RH  045%=      5-min Rain = 0
KMC5 251710Z 14002KT 28/15 A3005 RMK A01 T02800154  RH  046%=      5-min Rain = 0
KMC5 251711Z 14000KT 28/15 A3005 RMK A01 T02800152  RH  046%=      5-min Rain = 0
KMC5 251712Z 24003KT 28/16 A3005 RMK A01 T02800161  RH  048%=      5-min Rain = 0
KMC5 251713Z 23003KT 28/15 A3005 RMK A01 T02810154  RH  046%=      5-min Rain = 0
KMC5 251714Z 20003KT 28/15 A3005 RMK A01 T02820152  RH  045%=      5-min Rain = 0
KMC5 251715Z 18006KT 28/16 A3005 RMK A01 T02810160  RH  048%=      5-min Rain = 0
KMC5 251716Z 19006KT 28/16 A3005 RMK A01 T02810157  RH  047%=      5-min Rain = 0
KMC5 251717Z 19005KT 28/15 A3005 RMK A01 T02800150  RH  045%=      5-min Rain = 0
KMC5 251718Z 19004KT 28/15 A3005 RMK A01 T02790153  RH  046%=      5-min Rain = 0
KMC5 251719Z 20008KT 28/16 A3004 RMK A01 T02780159  RH  048%=      5-min Rain = 0
KMC5 251720Z 20008KT 28/16 A3004 RMK A01 T02810158  RH  047%=      5-min Rain = 0
KMC5 251721Z 19008KT 28/15 A3004 RMK A01 T02820151  RH  045%=      5-min Rain = 0
KMC5 251722Z 19009KT 28/15 A3004 RMK A01 T02810153  RH  046%=      5-min Rain = 0
KMC5 251723Z 20007KT 28/15 A3004 RMK A01 T02800154  RH  046%=      5-min Rain = 0
KMC5 251724Z 20011KT 28/17 A3004 RMK A01 T02810165  RH  049%=      5-min Rain = 0
KMC5 251725Z 20010KT 28/16 A3004 RMK A01 T02840155  RH  046%=      5-min Rain = 0
KMC5 251726Z 22010KT 28/16 A3004 RMK A01 T02840155  RH  046%=      5-min Rain = 0
KMC5 251727Z 22009KT 28/15 A3004 RMK A01 T02830154  RH  046%=      5-min Rain = 0
KMC5 251728Z 22007KT 28/16 A3004 RMK A01 T02820155  RH  046%=      5-min Rain = 0
KMC5 251729Z 21006KT 28/17 A3004 RMK A01 T02830165  RH  049%=      5-min Rain = 0
KMC5 251730Z 19005KT 29/16 A3004 RMK A01 T02850158  RH  046%=      5-min Rain = 0
KMC5 251731Z 20004KT 28/15 A3004 RMK A01 T02830147  RH  043%=      5-min Rain = 0
KMC5 251732Z 20002KT 28/15 A3004 RMK A01 T02810147  RH  044%=      5-min Rain = 0
KMC5 251733Z 18002KT 28/15 A3004 RMK A01 T02790145  RH  044%=      5-min Rain = 0
KMC5 251734Z 21003KT 28/15 A3004 RMK A01 T02790150  RH  045%=      5-min Rain = 0
KMC5 251735Z 22006KT 28/16 A3004 RMK A01 T02800156  RH  047%=      5-min Rain = 0
KMC5 251736Z 22007KT 28/16 A3004 RMK A01 T02830160  RH  047%=      5-min Rain = 0
KMC5 251737Z 22005KT 28/15 A3004 RMK A01 T02840152  RH  045%=      5-min Rain = 0
KMC5 251738Z 21005KT 28/16 A3004 RMK A01 T02840159  RH  047%=      5-min Rain = 0
KMC5 251739Z 17007KT 29/16 A3004 RMK A01 T02850162  RH  047%=      5-min Rain = 0
KMC5 251740Z 18005KT 29/16 A3004 RMK A01 T02870159  RH  046%=      5-min Rain = 0
KMC5 251741Z 19005KT 29/16 A3004 RMK A01 T02870160  RH  046%=      5-min Rain = 0
KMC5 251742Z 20006KT 29/15 A3004 RMK A01 T02870151  RH  043%=      5-min Rain = 0
KMC5 251743Z 21008KT 29/16 A3004 RMK A01 T02850159  RH  046%=      5-min Rain = 0
KMC5 251744Z 21009KT 29/15 A3004 RMK A01 T02860154  RH  045%=      5-min Rain = 0
KMC5 251745Z 20005KT 29/15 A3004 RMK A01 T02860153  RH  044%=      5-min Rain = 0
KMC5 251746Z 19003KT 29/15 A3004 RMK A01 T02850154  RH  045%=      5-min Rain = 0
KMC5 251747Z 17005KT 29/16 A3004 RMK A01 T02860159  RH  046%=      5-min Rain = 0
KMC5 251748Z 18007KT 29/16 A3004 RMK A01 T02860163  RH  047%=      5-min Rain = 0
KMC5 251749Z 17007KT 29/17 A3004 RMK A01 T02890172  RH  049%=      5-min Rain = 0
KMC5 251750Z 15006KT 29/16 A3004 RMK A01 T02910164  RH  046%=      5-min Rain = 0
KMC5 251751Z 14004G9KT 29/16 A3004 RMK A01 T02910157  RH  044%=      5-min Rain = 0
KMC5 251752Z 17005KT 29/17 A3004 RMK A01 T02890165  RH  047%=      5-min Rain = 0
KMC5 251753Z 16008KT 29/17 A3004 RMK A01 T02900168  RH  048%=      5-min Rain = 0
KMC5 251754Z 17007KT 29/16 A3004 RMK A01 T02900164  RH  047%=      5-min Rain = 0
KMC5 251755Z 18006KT 29/17 A3004 RMK A01 T02900165  RH  047%=      5-min Rain = 0
KMC5 251756Z 19007KT 29/16 A3004 RMK A01 T02900158  RH  045%=      5-min Rain = 0
KMC5 251757Z 18007KT 29/16 A3004 RMK A01 T02890158  RH  045%=      5-min Rain = 0
KMC5 251758Z 16007KT 29/16 A3004 RMK A01 T02880160  RH  046%=      5-min Rain = 0
KMC5 251759Z 17006KT 29/16 A3004 RMK A01 T02870157  RH  045%=      5-min Rain = 0
KMC5 251800Z 16007KT 29/16 A3004 RMK A01 T02870163  RH  047%=      5-min Rain = 0
KMC5 251801Z 16005KT 29/16 A3004 RMK A01 T02880162  RH  046%=      5-min Rain = 0
KMC5 251802Z 17005KT 29/17 A3004 RMK A01 T02890167  RH  048%=      5-min Rain = 0
KMC5 251803Z 19010KT 29/17 A3004 RMK A01 T02920174  RH  049%=      5-min Rain = 0
KMC5 251804Z 20008KT 29/16 A3004 RMK A01 T02940158  RH  044%=      5-min Rain = 0
KMC5 251805Z 20008KT 29/16 A3004 RMK A01 T02930164  RH  046%=      5-min Rain = 0
KMC5 251806Z 19006KT 29/16 A3004 RMK A01 T02910156  RH  044%=      5-min Rain = 0
KMC5 251807Z 20004KT 29/16 A3004 RMK A01 T02900159  RH  045%=      5-min Rain = 0
KMC5 251808Z 18006KT 29/16 A3004 RMK A01 T02900156  RH  044%=      5-min Rain = 0
KMC5 251809Z 16005KT 29/16 A3004 RMK A01 T02890158  RH  045%=      5-min Rain = 0
KMC5 251810Z 15005KT 29/15 A3004 RMK A01 T02890153  RH  044%=      5-min Rain = 0
KMC5 251811Z 15007KT 29/16 A3004 RMK A01 T02890159  RH  045%=      5-min Rain = 0
KMC5 251812Z 17005KT 29/17 A3004 RMK A01 T02910173  RH  049%=      5-min Rain = 0
KMC5 251813Z 16007KT 29/17 A3004 RMK A01 T02940165  RH  046%=      5-min Rain = 0
KMC5 251814Z 14006KT 29/16 A3004 RMK A01 T02940162  RH  045%=      5-min Rain = 0
KMC5 251815Z 13006KT 29/16 A3003 RMK A01 T02940162  RH  045%=      5-min Rain = 0
KMC5 251816Z 16009KT 29/17 A3003 RMK A01 T02940168  RH  047%=      5-min Rain = 0
KMC5 251817Z 16009KT 29/16 A3003 RMK A01 T02940164  RH  045%=      5-min Rain = 0
KMC5 251818Z 16010KT 30/16 A3003 RMK A01 T02950162  RH  045%=      5-min Rain = 0
KMC5 251819Z 17008KT 29/16 A3003 RMK A01 T02940158  RH  044%=      5-min Rain = 0
KMC5 251820Z 17007KT 29/16 A3003 RMK A01 T02920162  RH  045%=      5-min Rain = 0
KMC5 251821Z 15008KT 29/16 A3003 RMK A01 T02920163  RH  046%=      5-min Rain = 0
KMC5 251822Z 16009KT 29/16 A3003 RMK A01 T02930164  RH  046%=      5-min Rain = 0
KMC5 251823Z 18006KT 29/16 A3003 RMK A01 T02940164  RH  045%=      5-min Rain = 0
KMC5 251824Z 17008KT 29/17 A3003 RMK A01 T02940168  RH  047%=      5-min Rain = 0
KMC5 251825Z 17008KT 30/16 A3003 RMK A01 T02950161  RH  044%=      5-min Rain = 0
KMC5 251826Z 17009KT 30/17 A3003 RMK A01 T02950167  RH  046%=      5-min Rain = 0
KMC5 251827Z 17011KT 30/17 A3003 RMK A01 T02960167  RH  046%=      5-min Rain = 0
KMC5 251828Z 17010KT 30/17 A3003 RMK A01 T02970169  RH  046%=      5-min Rain = 0
KMC5 251829Z 17010KT 30/16 A3003 RMK A01 T02980162  RH  044%=      5-min Rain = 0
KMC5 251830Z 17008KT 30/16 A3003 RMK A01 T02970160  RH  044%=      5-min Rain = 0
KMC5 251831Z 19008KT 30/16 A3003 RMK A01 T02950156  RH  043%=      5-min Rain = 0
KMC5 251832Z 19008KT 29/16 A3003 RMK A01 T02940156  RH  043%=      5-min Rain = 0
KMC5 251833Z 18007KT 29/15 A3003 RMK A01 T02930153  RH  043%=      5-min Rain = 0
KMC5 251834Z 16005KT 29/16 A3003 RMK A01 T02930156  RH  043%=      5-min Rain = 0
KMC5 251835Z 13008G13KT 29/17 A3003 RMK A01 T02940168  RH  047%=      5-min Rain = 0
KMC5 251836Z 12012KT 30/17 A3003 RMK A01 T02970169  RH  046%=      5-min Rain = 0
KMC5 251837Z 13011KT 30/17 A3003 RMK A01 T02970165  RH  045%=      5-min Rain = 0
KMC5 251838Z 16010KT 30/17 A3003 RMK A01 T02970165  RH  045%=      5-min Rain = 0
KMC5 251839Z 14009KT 30/17 A3003 RMK A01 T02970168  RH  046%=      5-min Rain = 0
KMC5 251840Z 15008G13KT 30/17 A3003 RMK A01 T02980171  RH  047%=      5-min Rain = 0
KMC5 251841Z 14010KT 30/17 A3003 RMK A01 T02980170  RH  046%=      5-min Rain = 0
KMC5 251842Z 15009KT 30/17 A3003 RMK A01 T02980165  RH  045%=      5-min Rain = 0
KMC5 251843Z 18006KT 30/16 A3003 RMK A01 T02980155  RH  042%=      5-min Rain = 0
KMC5 251844Z 14005KT 30/16 A3003 RMK A01 T02960160  RH  044%=      5-min Rain = 0
KMC5 251845Z 15007KT 30/17 A3003 RMK A01 T02960165  RH  045%=      5-min Rain = 0
KMC5 251846Z 15006KT 30/17 A3003 RMK A01 T02980172  RH  047%=      5-min Rain = 0
KMC5 251847Z 17007KT 30/16 A3003 RMK A01 T02990164  RH  044%=      5-min Rain = 0
KMC5 251848Z 16004KT 30/16 A3003 RMK A01 T02990160  RH  043%=      5-min Rain = 0
KMC5 251849Z 19006KT 30/16 A3003 RMK A01 T02990160  RH  043%=      5-min Rain = 0
KMC5 251850Z 17007KT 30/17 A3003 RMK A01 T02980169  RH  046%=      5-min Rain = 0
KMC5 251851Z 15005KT 30/17 A3003 RMK A01 T03000168  RH  045%=      5-min Rain = 0
KMC5 251852Z 14009KT 30/17 A3003 RMK A01 T03010174  RH  047%=      5-min Rain = 0
KMC5 251853Z 13010G15KT 30/17 A3003 RMK A01 T03030173  RH  046%=      5-min Rain = 0
KMC5 251854Z 15012KT 30/16 A3003 RMK A01 T03030160  RH  042%=      5-min Rain = 0
KMC5 251855Z 16011KT 30/16 A3003 RMK A01 T03020158  RH  042%=      5-min Rain = 0
KMC5 251856Z 15010KT 30/16 A3003 RMK A01 T03010159  RH  042%=      5-min Rain = 0
KMC5 251857Z 14009KT 30/16 A3003 RMK A01 T03000156  RH  042%=      5-min Rain = 0
KMC5 251858Z 15009KT 30/16 A3003 RMK A01 T03000162  RH  043%=      5-min Rain = 0
KMC5 251859Z 17009KT 30/16 A3003 RMK A01 T03000163  RH  044%=      5-min Rain = 0
KMC5 251900Z 19006KT 30/16 A3003 RMK A01 T03010156  RH  041%=      5-min Rain = 0
KMC5 251901Z 16009KT 30/16 A3003 RMK A01 T03010164  RH  044%=      5-min Rain = 0
KMC5 251902Z 17010KT 30/16 A3003 RMK A01 T03020160  RH  043%=      5-min Rain = 0
KMC5 251903Z 17010KT 30/16 A3003 RMK A01 T03020156  RH  041%=      5-min Rain = 0
KMC5 251904Z 15008KT 30/16 A3003 RMK A01 T03000158  RH  042%=      5-min Rain = 0
KMC5 251905Z 16008KT 30/16 A3003 RMK A01 T03000156  RH  042%=      5-min Rain = 0
KMC5 251906Z 18006KT 30/15 A3003 RMK A01 T03010154  RH  041%=      5-min Rain = 0
KMC5 251907Z 19007KT 30/17 A3003 RMK A01 T03010172  RH  046%=      5-min Rain = 0
KMC5 251908Z 17007KT 31/17 A3003 RMK A01 T03050166  RH  043%=      5-min Rain = 0
KMC5 251909Z 15006KT 31/17 A3003 RMK A01 T03060169  RH  044%=      5-min Rain = 0
KMC5 251910Z 16008KT 31/18 A3003 RMK A01 T03070176  RH  046%=      5-min Rain = 0
KMC5 251911Z 15008KT 31/16 A3003 RMK A01 T03100164  RH  041%=      5-min Rain = 0
KMC5 251912Z 15008KT 31/16 A3003 RMK A01 T03100162  RH  041%=      5-min Rain = 0
KMC5 251913Z 15010KT 31/16 A3003 RMK A01 T03090155  RH  039%=      5-min Rain = 0
KMC5 251914Z 15008KT 31/16 A3003 RMK A01 T03060157  RH  040%=      5-min Rain = 0
KMC5 251915Z 15010KT 31/17 A3003 RMK A01 T03070168  RH  043%=      5-min Rain = 0
KMC5 251916Z 17011KT 31/16 A3003 RMK A01 T03100159  RH  040%=      5-min Rain = 0
KMC5 251917Z 18010KT 31/15 A3003 RMK A01 T03090153  RH  039%=      5-min Rain = 0
KMC5 251918Z 16007KT 31/16 A3003 RMK A01 T03070157  RH  040%=      5-min Rain = 0
KMC5 251919Z 12010KT 31/16 A3002 RMK A01 T03070163  RH  042%=      5-min Rain = 0
KMC5 251920Z 14010KT 31/16 A3003 RMK A01 T03070156  RH  040%=      5-min Rain = 0
KMC5 251921Z 16010KT 31/16 A3003 RMK A01 T03080158  RH  041%=      5-min Rain = 0
KMC5 251922Z 17009KT 31/16 A3003 RMK A01 T03080157  RH  040%=      5-min Rain = 0
KMC5 251923Z 18009KT 31/16 A3002 RMK A01 T03080156  RH  040%=      5-min Rain = 0
KMC5 251924Z 18007KT 31/16 A3002 RMK A01 T03080158  RH  040%=      5-min Rain = 0
KMC5 251925Z 14006KT 31/17 A3002 RMK A01 T03080174  RH  045%=      5-min Rain = 0
KMC5 251926Z 10007KT 31/17 A3002 RMK A01 T03100167  RH  042%=      5-min Rain = 0
KMC5 251927Z 11009KT 31/17 A3002 RMK A01 T03100166  RH  042%=      5-min Rain = 0
KMC5 251928Z 12014KT 31/17 A3002 RMK A01 T03100166  RH  042%=      5-min Rain = 0
KMC5 251929Z 12013KT 31/17 A3002 RMK A01 T03100166  RH  042%=      5-min Rain = 0
KMC5 251930Z 12013KT 31/16 A3002 RMK A01 T03090159  RH  041%=      5-min Rain = 0
KMC5 251931Z 11010KT 31/16 A3002 RMK A01 T03070157  RH  040%=      5-min Rain = 0
KMC5 251932Z 11010KT 31/16 A3002 RMK A01 T03050160  RH  041%=      5-min Rain = 0
KMC5 251933Z 14010KT 31/16 A3002 RMK A01 T03050161  RH  042%=      5-min Rain = 0
KMC5 251934Z 12009KT 31/16 A3002 RMK A01 T03060161  RH  042%=      5-min Rain = 0
KMC5 251935Z 12010KT 31/16 A3002 RMK A01 T03070159  RH  041%=      5-min Rain = 0
KMC5 251936Z 12007KT 31/16 A3002 RMK A01 T03070159  RH  041%=      5-min Rain = 0
KMC5 251937Z 14007KT 31/17 A3002 RMK A01 T03080167  RH  043%=      5-min Rain = 0
KMC5 251938Z 14008KT 31/16 A3002 RMK A01 T03090155  RH  039%=      5-min Rain = 0
KMC5 251939Z 13009KT 31/16 A3002 RMK A01 T03090158  RH  040%=      5-min Rain = 0
KMC5 251940Z 12010KT 31/16 A3002 RMK A01 T03090163  RH  042%=      5-min Rain = 0
KMC5 251941Z 12010KT 31/16 A3002 RMK A01 T03090155  RH  039%=      5-min Rain = 0
KMC5 251942Z 10011KT 31/16 A3002 RMK A01 T03090164  RH  042%=      5-min Rain = 0
KMC5 251943Z 11010KT 31/16 A3002 RMK A01 T03090155  RH  039%=      5-min Rain = 0
KMC5 251944Z 11009KT 31/16 A3002 RMK A01 T03090160  RH  041%=      5-min Rain = 0
KMC5 251945Z 11009KT 31/16 A3002 RMK A01 T03090160  RH  040%=      5-min Rain = 0
KMC5 251946Z 13011KT 31/17 A3002 RMK A01 T03100166  RH  042%=      5-min Rain = 0
KMC5 251947Z 13012KT 31/16 A3002 RMK A01 T03120163  RH  041%=      5-min Rain = 0
KMC5 251948Z 12010KT 31/16 A3002 RMK A01 T03120163  RH  041%=      5-min Rain = 0
KMC5 251949Z 11010KT 31/17 A3002 RMK A01 T03130174  RH  043%=      5-min Rain = 0
KMC5 251950Z 13010KT 32/16 A3002 RMK A01 T03160160  RH  039%=      5-min Rain = 0
KMC5 251951Z 14009KT 31/16 A3002 RMK A01 T03140161  RH  040%=      5-min Rain = 0
KMC5 251952Z 12010KT 31/15 A3001 RMK A01 T03130154  RH  038%=      5-min Rain = 0
KMC5 251953Z 10007KT 31/16 A3001 RMK A01 T03110158  RH  040%=      5-min Rain = 0
KMC5 251954Z 11009KT 31/17 A3001 RMK A01 T03120165  RH  041%=      5-min Rain = 0
KMC5 251955Z 11010KT 31/15 A3001 RMK A01 T03130152  RH  038%=      5-min Rain = 0
KMC5 251956Z 14007KT 31/16 A3001 RMK A01 T03130160  RH  040%=      5-min Rain = 0
KMC5 251957Z 14010KT 31/16 A3001 RMK A01 T03130160  RH  040%=      5-min Rain = 0
KMC5 251958Z 13012KT 32/16 A3001 RMK A01 T03150156  RH  038%=      5-min Rain = 0
KMC5 251959Z 13009KT 32/16 A3001 RMK A01 T03150158  RH  039%=      5-min Rain = 0
KMC5 252000Z 12008KT 32/16 A3001 RMK A01 T03150156  RH  038%=      5-min Rain = 0
KMC5 252001Z 14011KT 32/17 A3001 RMK A01 T03150167  RH  041%=      5-min Rain = 0
KMC5 252002Z 15014KT 32/16 A3001 RMK A01 T03160156  RH  038%=      5-min Rain = 0
KMC5 252003Z 15013KT 32/15 A3001 RMK A01 T03150152  RH  037%=      5-min Rain = 0
KMC5 252004Z 15010KT 31/16 A3001 RMK A01 T03140155  RH  038%=      5-min Rain = 0
KMC5 252005Z 13011KT 31/16 A3001 RMK A01 T03140163  RH  040%=      5-min Rain = 0
KMC5 252006Z 14012KT 32/16 A3001 RMK A01 T03150158  RH  039%=      5-min Rain = 0
KMC5 252007Z 14010KT 32/16 A3001 RMK A01 T03150160  RH  039%=      5-min Rain = 0
KMC5 252008Z 13009KT 32/16 A3001 RMK A01 T03160160  RH  039%=      5-min Rain = 0
KMC5 252009Z 11011KT 32/16 A30 RMK A01 T03160159  RH  039%=      5-min Rain = 0
KMC5 252010Z 13010KT 32/16 A30 RMK A01 T03160164  RH  040%=      5-min Rain = 0
KMC5 252011Z 13012KT 32/16 A30 RMK A01 T03160161  RH  039%=      5-min Rain = 0
KMC5 252012Z 14013KT 32/17 A30 RMK A01 T03170167  RH  041%=      5-min Rain = 0
KMC5 252013Z 13014KT 32/16 A30 RMK A01 T03180160  RH  039%=      5-min Rain = 0
KMC5 252014Z 14014KT 32/16 A30 RMK A01 T03180160  RH  039%=      5-min Rain = 0
KMC5 252015Z 14014KT 32/16 A30 RMK A01 T03170161  RH  039%=      5-min Rain = 0
KMC5 252016Z 13012KT 32/16 A30 RMK A01 T03170159  RH  039%=      5-min Rain = 0
KMC5 252017Z 13011KT 32/15 A30 RMK A01 T03150150  RH  037%=      5-min Rain = 0
KMC5 252018Z 13013KT 31/15 A30 RMK A01 T03110148  RH  037%=      5-min Rain = 0
KMC5 252019Z 13015KT 31/15 A30 RMK A01 T03080148  RH  038%=      5-min Rain = 0
KMC5 252020Z 12013KT 31/15 A30 RMK A01 T03070151  RH  039%=      5-min Rain = 0
KMC5 252021Z 13013KT 31/16 A30 RMK A01 T03060157  RH  040%=      5-min Rain = 0
KMC5 252022Z 13014KT 31/15 A30 RMK A01 T03060150  RH  039%=      5-min Rain = 0
KMC5 252023Z 13013KT 30/15 A30 RMK A01 T03040146  RH  038%=      5-min Rain = 0
KMC5 252024Z 12012KT 30/15 A30 RMK A01 T03030145  RH  038%=      5-min Rain = 0
KMC5 252025Z 11013KT 30/15 A30 RMK A01 T03020145  RH  038%=      5-min Rain = 0
KMC5 252026Z 11012KT 30/14 A2999 RMK A01 T03020144  RH  038%=      5-min Rain = 0
KMC5 252027Z 13013KT 30/15 A2999 RMK A01 T03020150  RH  040%=      5-min Rain = 0
KMC5 252028Z 13013KT 30/15 A2999 RMK A01 T03020153  RH  041%=      5-min Rain = 0
KMC5 252029Z 13014KT 30/15 A2999 RMK A01 T03010153  RH  041%=      5-min Rain = 0
KMC5 252030Z 13015KT 30/15 A2999 RMK A01 T03010146  RH  039%=      5-min Rain = 0
KMC5 252031Z 14013KT 30/15 A2999 RMK A01 T03010149  RH  040%=      5-min Rain = 0
KMC5 252032Z 13013KT 30/15 A2999 RMK A01 T03000150  RH  040%=      5-min Rain = 0
KMC5 252033Z 13012KT 30/15 A2999 RMK A01 T02990148  RH  040%=      5-min Rain = 0
KMC5 252034Z 13011KT 30/15 A2999 RMK A01 T03000153  RH  041%=      5-min Rain = 0
KMC5 252035Z 13011KT 30/15 A2999 RMK A01 T02990154  RH  041%=      5-min Rain = 0
KMC5 252036Z 13012KT 30/15 A2999 RMK A01 T02990152  RH  041%=      5-min Rain = 0
KMC5 252037Z 13010KT 30/15 A2999 RMK A01 T02990153  RH  041%=      5-min Rain = 0
KMC5 252038Z 13010KT 30/16 A2999 RMK A01 T02980158  RH  043%=      5-min Rain = 0
KMC5 252039Z 13010KT 30/16 A2999 RMK A01 T02980155  RH  042%=      5-min Rain = 0
KMC5 252040Z 13011KT 30/15 A2999 RMK A01 T02970152  RH  041%=      5-min Rain = 0
KMC5 252041Z 12011KT 30/16 A2999 RMK A01 T02980155  RH  042%=      5-min Rain = 0
KMC5 252042Z 12010KT 30/16 A2999 RMK A01 T02970157  RH  043%=      5-min Rain = 0
KMC5 252043Z 11009KT 30/16 A2999 RMK A01 T02960155  RH  042%=      5-min Rain = 0
KMC5 252044Z 12011KT 30/16 A2999 RMK A01 T02950158  RH  043%=      5-min Rain = 0
KMC5 252045Z 12012KT 30/15 A2999 RMK A01 T02950152  RH  042%=      5-min Rain = 0
KMC5 252046Z 13011KT 30/15 A2999 RMK A01 T02950153  RH  042%=      5-min Rain = 0
KMC5 252047Z 14013KT 30/15 A2999 RMK A01 T02950150  RH  041%=      5-min Rain = 0
KMC5 252048Z 13012KT 29/15 A2999 RMK A01 T02940148  RH  041%=      5-min Rain = 0
KMC5 252049Z 13011KT 30/15 A2999 RMK A01 T02950151  RH  042%=      5-min Rain = 0
KMC5 252050Z 12010KT 29/15 A2999 RMK A01 T02940151  RH  042%=      5-min Rain = 0
KMC5 252051Z 12011KT 29/15 A2999 RMK A01 T02940150  RH  042%=      5-min Rain = 0
KMC5 252052Z 12011KT 29/15 A2999 RMK A01 T02930148  RH  041%=      5-min Rain = 0
KMC5 252053Z 13012KT 29/15 A2999 RMK A01 T02930149  RH  041%=      5-min Rain = 0
KMC5 252054Z 14010KT 29/15 A2999 RMK A01 T02930151  RH  042%=      5-min Rain = 0
KMC5 252055Z 13011KT 29/15 A2999 RMK A01 T02920151  RH  042%=      5-min Rain = 0
KMC5 252056Z 13010KT 29/15 A2999 RMK A01 T02920153  RH  043%=      5-min Rain = 0
KMC5 252057Z 13011KT 29/15 A2999 RMK A01 T02910151  RH  043%=      5-min Rain = 0
KMC5 252058Z 13012KT 29/15 A2999 RMK A01 T02910150  RH  042%=      5-min Rain = 0
KMC5 252059Z 13011KT 29/15 A2999 RMK A01 T02910151  RH  043%=      5-min Rain = 0
KMC5 252100Z 12011KT 29/15 A2999 RMK A01 T02900149  RH  042%=      5-min Rain = 0
KMC5 252101Z 12011KT 29/15 A2999 RMK A01 T02900150  RH  043%=      5-min Rain = 0
KMC5 252102Z 13009KT 29/15 A2999 RMK A01 T02890153  RH  043%=      5-min Rain = 0
KMC5 252103Z 13010KT 29/15 A2999 RMK A01 T02880151  RH  043%=      5-min Rain = 0
KMC5 252104Z 13009KT 29/15 A2999 RMK A01 T02880153  RH  044%=      5-min Rain = 0
KMC5 252105Z 13010KT 29/15 A2999 RMK A01 T02870152  RH  044%=      5-min Rain = 0
KMC5 252106Z 12011KT 29/15 A2999 RMK A01 T02870150  RH  043%=      5-min Rain = 0
KMC5 252107Z 13010KT 29/15 A2999 RMK A01 T02860149  RH  043%=      5-min Rain = 0
KMC5 252108Z 13011KT 29/15 A2999 RMK A01 T02870151  RH  044%=      5-min Rain = 0
KMC5 252109Z 14010KT 29/15 A2999 RMK A01 T02860150  RH  043%=      5-min Rain = 0
KMC5 252110Z 13012KT 29/15 A2999 RMK A01 T02860150  RH  044%=      5-min Rain = 0
KMC5 252111Z 13012KT 29/15 A2999 RMK A01 T02860147  RH  043%=      5-min Rain = 0
KMC5 252112Z 14013KT 29/15 A2999 RMK A01 T02860149  RH  043%=      5-min Rain = 0
KMC5 252113Z 15012KT 29/15 A2999 RMK A01 T02860149  RH  043%=      5-min Rain = 0
KMC5 252114Z 15012KT 29/15 A2999 RMK A01 T02860150  RH  043%=      5-min Rain = 0
KMC5 252115Z 15011KT 29/15 A2999 RMK A01 T02860151  RH  044%=      5-min Rain = 0
KMC5 252116Z 14015KT 29/15 A2998 RMK A01 T02860148  RH  043%=      5-min Rain = 0
KMC5 252117Z 14017G22KT 29/15 A2998 RMK A01 T02860146  RH  042%=      5-min Rain = 0
KMC5 252118Z 15020G30KT 29/15 A2998 RMK A01 T02860146  RH  042%=      5-min Rain = 0
KMC5 252119Z 16024G31KT 29/13 A2997 RMK A01 T02870128  RH  038%=      5-min Rain = 0
KMC5 252120Z 15020KT 29/13 A2998 RMK A01 T02910134  RH  038%=      5-min Rain = 0
KMC5 252121Z 15022KT 29/12 A2997 RMK A01 T02930119  RH  034%=      5-min Rain = 0
KMC5 252122Z 16024KT 30/08 A2997 RMK A01 T02950078  RH  026%=      5-min Rain = 0
KMC5 252123Z 17018G23KT 30/08 A2998 RMK A01 T03020075  RH  024%=      5-min Rain = 0
KMC5 252124Z 14019KT 31/08 A2998 RMK A01 T03050077  RH  024%=      5-min Rain = 0
KMC5 252125Z 15013G19KT 31/06 A2998 RMK A01 T03060061  RH  021%=      5-min Rain = 0
KMC5 252126Z 15011KT 31/09 A2998 RMK A01 T03060087  RH  026%=      5-min Rain = 0
KMC5 252127Z 16017KT 30/12 A2999 RMK A01 T03030115  RH  032%=      5-min Rain = 0
KMC5 252128Z 16019KT 30/13 A2999 RMK A01 T02980130  RH  036%=      5-min Rain = 0
KMC5 252129Z 16016KT 30/13 A2999 RMK A01 T02960133  RH  037%=      5-min Rain = 0
KMC5 252130Z 17015KT 29/14 A2999 RMK A01 T02930137  RH  038%=      5-min Rain = 0
KMC5 252131Z 17015KT 29/14 A2999 RMK A01 T02900140  RH  040%=      5-min Rain = 0
KMC5 252132Z 17015KT 29/14 A2999 RMK A01 T02880144  RH  041%=      5-min Rain = 0
KMC5 252133Z 16012KT 29/14 A2999 RMK A01 T02850144  RH  042%=      5-min Rain = 0
KMC5 252134Z 17017KT 28/13 A2998 RMK A01 T02840128  RH  038%=      5-min Rain = 0
KMC5 252135Z 18016G23KT 29/10 A2998 RMK A01 T02870099  RH  031%=      5-min Rain = 0
KMC5 252136Z 18019G26KT 29/06 A2997 RMK A01 T02910060  RH  023%=      5-min Rain = 0
KMC5 252137Z 17018KT 30/06 A2997 RMK A01 T02970060  RH  022%=      5-min Rain = 0
KMC5 252138Z 16014KT 30/05 A2997 RMK A01 T02990054  RH  021%=      5-min Rain = 0
KMC5 252139Z 15014KT 30/06 A2997 RMK A01 T03000057  RH  022%=      5-min Rain = 0
KMC5 252140Z 14013KT 30/06 A2997 RMK A01 T02990060  RH  022%=      5-min Rain = 0
KMC5 252141Z 16012G19KT 30/04 A2996 RMK A01 T02960043  RH  020%=      5-min Rain = 0
KMC5 252142Z 15009KT 30/04 A2996 RMK A01 T03000041  RH  019%=      5-min Rain = 0
KMC5 252143Z 14010KT 30/05 A2996 RMK A01 T03010052  RH  021%=      5-min Rain = 0
KMC5 252144Z 14013KT 30/06 A2996 RMK A01 T02990062  RH  023%=      5-min Rain = 0
KMC5 252145Z 14012KT 30/07 A2997 RMK A01 T02960072  RH  024%=      5-min Rain = 0
KMC5 252146Z 14013KT 29/08 A2997 RMK A01 T02930077  RH  026%=      5-min Rain = 0
KMC5 252147Z 15011KT 29/07 A2997 RMK A01 T02920067  RH  024%=      5-min Rain = 0
KMC5 252148Z 14009KT 29/08 A2997 RMK A01 T02920076  RH  026%=      5-min Rain = 0
KMC5 252149Z 13010KT 29/08 A2996 RMK A01 T02910079  RH  026%=      5-min Rain = 0
KMC5 252150Z 13011KT 29/08 A2996 RMK A01 T02890080  RH  027%=      5-min Rain = 0
KMC5 252151Z 14010KT 29/08 A2996 RMK A01 T02890084  RH  028%=      5-min Rain = 0
KMC5 252152Z 14012KT 29/08 A2996 RMK A01 T02880082  RH  027%=      5-min Rain = 0
KMC5 252153Z 14008KT 29/08 A2996 RMK A01 T02900084  RH  028%=      5-min Rain = 0
KMC5 252154Z 13009KT 29/09 A2996 RMK A01 T02900090  RH  029%=      5-min Rain = 0
KMC5 252155Z 15013KT 29/09 A2996 RMK A01 T02880092  RH  029%=      5-min Rain = 0
KMC5 252156Z 15011KT 29/10 A2997 RMK A01 T02880097  RH  030%=      5-min Rain = 0
KMC5 252157Z 15011KT 29/10 A2997 RMK A01 T02870098  RH  031%=      5-min Rain = 0
KMC5 252158Z 16011KT 29/10 A2997 RMK A01 T02860101  RH  032%=      5-min Rain = 0
KMC5 252159Z 16010KT 29/10 A2997 RMK A01 T02850102  RH  032%=      5-min Rain = 0
KMC5 252200Z 15014KT 28/10 A2997 RMK A01 T02840104  RH  032%=      5-min Rain = 0
KMC5 252201Z 15012KT 29/11 A2997 RMK A01 T02850105  RH  033%=      5-min Rain = 0
KMC5 252202Z 14010KT 29/11 A2998 RMK A01 T02860110  RH  033%=      5-min Rain = 0
KMC5 252203Z 15011KT 29/11 A2998 RMK A01 T02850111  RH  034%=      5-min Rain = 0
KMC5 252204Z 15011KT 28/11 A2998 RMK A01 T02840112  RH  034%=      5-min Rain = 0
KMC5 252205Z 15010KT 28/12 A2998 RMK A01 T02840115  RH  035%=      5-min Rain = 0
KMC5 252206Z 15009KT 28/12 A2998 RMK A01 T02830119  RH  036%=      5-min Rain = 0
KMC5 252207Z 15010KT 28/12 A2998 RMK A01 T02820123  RH  037%=      5-min Rain = 0
KMC5 252208Z 15010KT 28/12 A2998 RMK A01 T02800124  RH  038%=      5-min Rain = 0
KMC5 252209Z 15011KT 28/13 A2998 RMK A01 T02790126  RH  039%=      5-min Rain = 0
KMC5 252210Z 16011KT 28/13 A2998 RMK A01 T02790128  RH  039%=      5-min Rain = 0
KMC5 252211Z 15012KT 28/13 A2998 RMK A01 T02790130  RH  040%=      5-min Rain = 0
KMC5 252212Z 15013KT 28/13 A2998 RMK A01 T02790134  RH  041%=      5-min Rain = 0
KMC5 252213Z 15013KT 28/14 A2998 RMK A01 T02800137  RH  042%=      5-min Rain = 0
KMC5 252214Z 15013KT 28/14 A2998 RMK A01 T02800139  RH  042%=      5-min Rain = 0
KMC5 252215Z 15014KT 28/14 A2998 RMK A01 T02800141  RH  042%=      5-min Rain = 0
KMC5 252216Z 15012KT 28/14 A2998 RMK A01 T02810143  RH  043%=      5-min Rain = 0
KMC5 252217Z 14013KT 28/14 A2999 RMK A01 T02810144  RH  043%=      5-min Rain = 0
KMC5 252218Z 15012KT 28/15 A2999 RMK A01 T02810145  RH  043%=      5-min Rain = 0
KMC5 252219Z 14011KT 28/15 A2999 RMK A01 T02810147  RH  044%=      5-min Rain = 0
KMC5 252220Z 14012KT 28/15 A2999 RMK A01 T02810148  RH  044%=      5-min Rain = 0
KMC5 252221Z 14012KT 28/15 A2999 RMK A01 T02810148  RH  044%=      5-min Rain = 0
KMC5 252222Z 13011KT 28/15 A2999 RMK A01 T02810149  RH  045%=      5-min Rain = 0
KMC5 252223Z 14014KT 28/15 A2999 RMK A01 T02810150  RH  045%=      5-min Rain = 0
KMC5 252224Z 13015KT 28/15 A2999 RMK A01 T02810149  RH  045%=      5-min Rain = 0
KMC5 252225Z 13013KT 28/15 A2999 RMK A01 T02820149  RH  044%=      5-min Rain = 0
KMC5 252226Z 12012KT 28/15 A2999 RMK A01 T02820150  RH  045%=      5-min Rain = 0
KMC5 252227Z 12013KT 28/15 A2999 RMK A01 T02820150  RH  045%=      5-min Rain = 0
KMC5 252228Z 12011KT 28/15 A2999 RMK A01 T02810151  RH  045%=      5-min Rain = 0
KMC5 252229Z 11011KT 28/15 A2999 RMK A01 T02810152  RH  045%=      5-min Rain = 0
KMC5 252230Z 11012KT 28/15 A2999 RMK A01 T02800152  RH  046%=      5-min Rain = 0
KMC5 252231Z 11011KT 28/15 A2999 RMK A01 T02800153  RH  046%=      5-min Rain = 0
KMC5 252232Z 11011KT 28/16 A2999 RMK A01 T02790155  RH  047%=      5-min Rain = 0
KMC5 252233Z 11011KT 28/15 A2999 RMK A01 T02780154  RH  047%=      5-min Rain = 0
KMC5 252234Z 11010KT 28/15 A2999 RMK A01 T02770154  RH  047%=      5-min Rain = 0
KMC5 252235Z 10008KT 28/16 A2999 RMK A01 T02770156  RH  047%=      5-min Rain = 0
KMC5 252236Z 07005KT 28/15 A2999 RMK A01 T02760154  RH  047%=      5-min Rain = 0
KMC5 252237Z 02005KT 28/16 A2999 RMK A01 T02760156  RH  048%=      5-min Rain = 0
KMC5 252238Z 34005KT 28/16 A30 RMK A01 T02760158  RH  048%=      5-min Rain = 0
KMC5 252239Z 31009KT 27/16 A3001 RMK A01 T02740159  RH  049%=      5-min Rain = 0
KMC5 252240Z 31011KT 27/16 A3002 RMK A01 T02720161  RH  051%=      5-min Rain = 0
KMC5 252241Z 30010KT 27/15 A3002 RMK A01 T02680152  RH  049%=      5-min Rain = 0
KMC5 252242Z 30007KT 27/14 A3002 RMK A01 T02660141  RH  046%=      5-min Rain = 0
KMC5 252243Z 30007G14KT 27/13 A3001 RMK A01 T02650132  RH  044%=      5-min Rain = 0
KMC5 252244Z 31015KT 27/11 A3001 RMK A01 T02660107  RH  037%=      5-min Rain = 0
KMC5 252245Z 32012KT 27/09 A3001 RMK A01 T02660093  RH  034%=      5-min Rain = 0
KMC5 252246Z 27008KT 27/09 A3001 RMK A01 T02660094  RH  034%=      5-min Rain = 0
KMC5 252247Z 23005KT 27/10 A3001 RMK A01 T02660102  RH  036%=      5-min Rain = 0
KMC5 252248Z 22007KT 27/10 A3001 RMK A01 T02650100  RH  036%=      5-min Rain = 0
KMC5 252249Z 22010G17KT 26/10 A3001 RMK A01 T02640100  RH  036%=      5-min Rain = 0
KMC5 252250Z 25016KT 26/10 A3002 RMK A01 T02630102  RH  036%=      5-min Rain = 0
KMC5 252251Z 27011KT 27/10 A3002 RMK A01 T02650100  RH  036%=      5-min Rain = 0
KMC5 252252Z 30007G13KT 27/10 A3002 RMK A01 T02660096  RH  034%=      5-min Rain = 0
KMC5 252253Z 26007KT 27/10 A3003 RMK A01 T02670095  RH  034%=      5-min Rain = 0
KMC5 252254Z 24005KT 27/10 A3003 RMK A01 T02680101  RH  035%=      5-min Rain = 0
KMC5 252255Z 25004KT 27/10 A3003 RMK A01 T02670099  RH  035%=      5-min Rain = 0
KMC5 252256Z 26003KT 27/10 A3003 RMK A01 T02660098  RH  035%=      5-min Rain = 0
KMC5 252257Z 03003KT 27/10 A3004 RMK A01 T02650100  RH  035%=      5-min Rain = 0
KMC5 252258Z 32005KT 27/10 A3004 RMK A01 T02650103  RH  036%=      5-min Rain = 0
KMC5 252259Z 30009G15KT 27/11 A3005 RMK A01 T02660113  RH  038%=      5-min Rain = 0
KMC5 252300Z 28013G24KT 27/11 A3005 RMK A01 T02660108  RH  037%=      5-min Rain = 0
KMC5 252301Z 29026G31KT 26/10 A3005 RMK A01 T02600102  RH  037%=      5-min Rain = 0
KMC5 252302Z 29020KT 26/10 A3005 RMK A01 T02550096  RH  037%=      5-min Rain = 0
KMC5 252303Z 28020KT 25/10 A3006 RMK A01 T02530098  RH  037%=      5-min Rain = 0
KMC5 252304Z 28015KT 25/11 A3006 RMK A01 T02490106  RH  040%=      5-min Rain = 0
KMC5 252305Z 29017G24KT 24/11 A3006 RMK A01 T02440112  RH  044%=      5-min Rain = 0
KMC5 252306Z 30023KT 24/11 A3006 RMK A01 T02390113  RH  045%=      5-min Rain = 0
KMC5 252307Z 28020KT 23/12 A3006 RMK A01 T02330120  RH  049%=      5-min Rain = 0
KMC5 252308Z 28025KT 23/12 A3006 RMK A01 T02280121  RH  051%=      5-min Rain = 0
KMC5 252309Z 29024G30KT 23/13 A3006 RMK A01 T02250125  RH  053%=      5-min Rain = 0
KMC5 252310Z 29024KT 22/13 A3007 RMK A01 T02180128  RH  056%=      5-min Rain = 0
KMC5 252311Z 29021KT 21/13 A3007 RMK A01 T02130130  RH  059%=      5-min Rain = 0
KMC5 252312Z 29023KT 21/13 A3007 RMK A01 T02100130  RH  060%=      5-min Rain = 0
KMC5 252313Z 29020G27KT 21/13 A3008 RMK A01 T02110125  RH  058%=      5-min Rain = 0
KMC5 252314Z 28013KT 21/13 A3008 RMK A01 T02110134  RH  061%=      5-min Rain = 0
KMC5 252315Z 29013KT 21/14 A3008 RMK A01 T02060139  RH  065%=      5-min Rain = 0
KMC5 252316Z 28009KT 20/13 A3007 RMK A01 T02030133  RH  064%=      5-min Rain = 0.02
KMC5 252317Z 26007KT 20/14 A3007 RMK A01 T02030137  RH  066%=      5-min Rain = 0
KMC5 252318Z 27006KT 20/14 A3007 RMK A01 T02020140  RH  068%=      5-min Rain = 0
KMC5 252319Z 35001KT 20/14 A3008 RMK A01 T02000139  RH  068%=      5-min Rain = 0
KMC5 252320Z 36005G13KT 20/13 A3008 RMK A01 T02010127  RH  062%=      5-min Rain = 0
KMC5 252321Z 36014KT 21/11 A3008 RMK A01 T02090113  RH  054%=      5-min Rain = 0
KMC5 252322Z 35012KT 22/09 A3008 RMK A01 T02240090  RH  042%=      5-min Rain = 0
KMC5 252323Z 01013KT 24/11 A3007 RMK A01 T02360107  RH  044%=      5-min Rain = 0
KMC5 252324Z 02018KT 23/11 A3006 RMK A01 T02330114  RH  047%=      5-min Rain = 0
KMC5 252325Z 03016KT 23/11 A3005 RMK A01 T02300110  RH  047%=      5-min Rain = 0
KMC5 252326Z 05015KT 23/11 A3005 RMK A01 T02290114  RH  048%=      5-min Rain = 0
KMC5 252327Z 06014KT 23/12 A3004 RMK A01 T02250120  RH  052%=      5-min Rain = 0
KMC5 252328Z 06015KT 22/12 A3003 RMK A01 T02190124  RH  055%=      5-min Rain = 0
KMC5 252329Z 06016KT 22/12 A3002 RMK A01 T02160120  RH  054%=      5-min Rain = 0
KMC5 252330Z 07020G27KT 22/12 A3001 RMK A01 T02160119  RH  054%=      5-min Rain = 0
KMC5 252331Z 06023KT 22/11 A3001 RMK A01 T02210111  RH  050%=      5-min Rain = 0
KMC5 252332Z 06021KT 22/12 A3001 RMK A01 T02240118  RH  051%=      5-min Rain = 0
KMC5 252333Z 05020KT 22/11 A3001 RMK A01 T02220112  RH  050%=      5-min Rain = 0
KMC5 252334Z 05019KT 22/11 A3001 RMK A01 T02240114  RH  050%=      5-min Rain = 0
KMC5 252335Z 05020KT 22/12 A3001 RMK A01 T02240116  RH  050%=      5-min Rain = 0
KMC5 252336Z 05018KT 22/12 A3001 RMK A01 T02220121  RH  053%=      5-min Rain = 0
KMC5 252337Z 05016KT 22/12 A3001 RMK A01 T02190121  RH  054%=      5-min Rain = 0
KMC5 252338Z 06016KT 22/13 A3002 RMK A01 T02170125  RH  056%=      5-min Rain = 0
KMC5 252339Z 07015KT 22/12 A3002 RMK A01 T02150123  RH  056%=      5-min Rain = 0
KMC5 252340Z 07016KT 21/13 A3003 RMK A01 T02130125  RH  057%=      5-min Rain = 0
KMC5 252341Z 07016KT 21/12 A3003 RMK A01 T02130122  RH  056%=      5-min Rain = 0
KMC5 252342Z 08015KT 22/12 A3003 RMK A01 T02150120  RH  055%=      5-min Rain = 0
KMC5 252343Z 09015KT 22/13 A3004 RMK A01 T02170126  RH  056%=      5-min Rain = 0
KMC5 252344Z 09014KT 22/13 A3004 RMK A01 T02160127  RH  057%=      5-min Rain = 0
KMC5 252345Z 10015KT 22/13 A3004 RMK A01 T02150126  RH  057%=      5-min Rain = 0
KMC5 252346Z 09016KT 22/12 A3004 RMK A01 T02150123  RH  056%=      5-min Rain = 0
KMC5 252347Z 09016KT 22/13 A3004 RMK A01 T02150125  RH  056%=      5-min Rain = 0
KMC5 252348Z 08014KT 22/13 A3004 RMK A01 T02160127  RH  057%=      5-min Rain = 0
KMC5 252349Z 08014KT 21/13 A3004 RMK A01 T02140128  RH  058%=      5-min Rain = 0
KMC5 252350Z 09015KT 21/12 A3004 RMK A01 T02140124  RH  057%=      5-min Rain = 0
KMC5 252351Z 09015KT 22/12 A3003 RMK A01 T02160123  RH  055%=      5-min Rain = 0
KMC5 252352Z 10017KT 22/12 A3003 RMK A01 T02170122  RH  055%=      5-min Rain = 0.01
KMC5 252353Z 10019KT 22/12 A3003 RMK A01 T02190118  RH  053%=      5-min Rain = 0
KMC5 252354Z 10019KT 22/12 A3003 RMK A01 T02200120  RH  053%=      5-min Rain = 0
KMC5 252355Z 10018KT 22/12 A3003 RMK A01 T02200121  RH  053%=      5-min Rain = 0
KMC5 252356Z 10019KT 22/12 A3003 RMK A01 T02190121  RH  054%=      5-min Rain = 0
KMC5 252357Z 10019KT 22/13 A3002 RMK A01 T02180125  RH  055%=      5-min Rain = 0
KMC5 252358Z 11019KT 22/12 A3002 RMK A01 T02160124  RH  056%=      5-min Rain = 0
KMC5 252359Z 10019KT 22/12 A3002 RMK A01 T02150124  RH  056%=      5-min Rain = 0
KMC5 260000Z 10017KT 22/13 A3002 RMK A01 T02150126  RH  057%=      5-min Rain = 0
KMC5 260001Z 10016KT 21/13 A3002 RMK A01 T02130127  RH  058%=      5-min Rain = 0
KMC5 260002Z 10016KT 21/13 A3002 RMK A01 T02120127  RH  058%=      5-min Rain = 0
KMC5 260003Z 10016KT 21/13 A3002 RMK A01 T02120127  RH  058%=      5-min Rain = 0
KMC5 260004Z 10018KT 21/12 A3002 RMK A01 T02120122  RH  056%=      5-min Rain = 0
KMC5 260005Z 10019KT 22/12 A3001 RMK A01 T02170118  RH  053%=      5-min Rain = 0
KMC5 260006Z 10020KT 22/11 A3001 RMK A01 T02220114  RH  050%=      5-min Rain = 0
KMC5 260007Z 10019KT 23/12 A3001 RMK A01 T02250115  RH  050%=      5-min Rain = 0
KMC5 260008Z 11018KT 23/12 A3001 RMK A01 T02250119  RH  051%=      5-min Rain = 0
KMC5 260009Z 12015KT 22/12 A3001 RMK A01 T02220122  RH  053%=      5-min Rain = 0
KMC5 260010Z 12014KT 22/13 A3001 RMK A01 T02180126  RH  056%=      5-min Rain = 0
KMC5 260011Z 12014KT 22/13 A3002 RMK A01 T02150125  RH  056%=      5-min Rain = 0
KMC5 260012Z 12013KT 21/13 A3002 RMK A01 T02140128  RH  058%=      5-min Rain = 0
KMC5 260013Z 11014KT 21/13 A3002 RMK A01 T02110130  RH  060%=      5-min Rain = 0
KMC5 260014Z 11017KT 21/12 A3002 RMK A01 T02110124  RH  058%=      5-min Rain = 0
KMC5 260015Z 11017KT 21/12 A3002 RMK A01 T02130124  RH  057%=      5-min Rain = 0
KMC5 260016Z 11016KT 21/13 A3002 RMK A01 T02140125  RH  057%=      5-min Rain = 0
KMC5 260017Z 10015KT 21/12 A3002 RMK A01 T02140124  RH  057%=      5-min Rain = 0
KMC5 260018Z 11014KT 21/13 A3003 RMK A01 T02140125  RH  057%=      5-min Rain = 0
KMC5 260019Z 11015KT 21/13 A3003 RMK A01 T02140126  RH  057%=      5-min Rain = 0
KMC5 260020Z 11014KT 21/13 A3003 RMK A01 T02130125  RH  057%=      5-min Rain = 0
KMC5 260021Z 11014KT 21/13 A3003 RMK A01 T02130127  RH  058%=      5-min Rain = 0
KMC5 260022Z 13013KT 21/13 A3003 RMK A01 T02120127  RH  059%=      5-min Rain = 0
KMC5 260023Z 13012KT 21/13 A3002 RMK A01 T02110126  RH  058%=      5-min Rain = 0
KMC5 260024Z 15013KT 21/13 A3002 RMK A01 T02110128  RH  059%=      5-min Rain = 0
KMC5 260025Z 15015KT 21/13 A3003 RMK A01 T02100128  RH  059%=      5-min Rain = 0
KMC5 260026Z 15016KT 21/13 A3002 RMK A01 T02100127  RH  059%=      5-min Rain = 0
KMC5 260027Z 14016KT 21/12 A3002 RMK A01 T02110123  RH  057%=      5-min Rain = 0
KMC5 260028Z 13017KT 21/12 A3002 RMK A01 T02130122  RH  056%=      5-min Rain = 0
KMC5 260029Z 13017KT 22/12 A3002 RMK A01 T02150123  RH  056%=      5-min Rain = 0
KMC5 260030Z 13017KT 22/12 A3002 RMK A01 T02160118  RH  053%=      5-min Rain = 0
KMC5 260031Z 13020KT 22/12 A3002 RMK A01 T02190117  RH  052%=      5-min Rain = 0
KMC5 260032Z 13021KT 22/12 A3002 RMK A01 T02200117  RH  052%=      5-min Rain = 0
KMC5 260033Z 13021KT 22/12 A3002 RMK A01 T02200117  RH  052%=      5-min Rain = 0
KMC5 260034Z 14017KT 22/12 A3002 RMK A01 T02200116  RH  052%=      5-min Rain = 0
KMC5 260035Z 14018KT 22/11 A3002 RMK A01 T02200113  RH  051%=      5-min Rain = 0
KMC5 260036Z 14017KT 22/11 A3003 RMK A01 T02210114  RH  051%=      5-min Rain = 0
KMC5 260037Z 15016KT 22/12 A3003 RMK A01 T02220118  RH  052%=      5-min Rain = 0
KMC5 260038Z 15017KT 22/12 A3003 RMK A01 T02190120  RH  053%=      5-min Rain = 0
KMC5 260039Z 15019G24KT 22/12 A3003 RMK A01 T02160120  RH  054%=      5-min Rain = 0
KMC5 260040Z 14021KT 22/12 A3003 RMK A01 T02160119  RH  054%=      5-min Rain = 0
KMC5 260041Z 14019KT 22/12 A3003 RMK A01 T02160117  RH  053%=      5-min Rain = 0
KMC5 260042Z 14019KT 22/12 A3004 RMK A01 T02170119  RH  054%=      5-min Rain = 0
KMC5 260043Z 14020KT 22/11 A3004 RMK A01 T02170114  RH  052%=      5-min Rain = 0
KMC5 260044Z 14022G27KT 22/12 A3003 RMK A01 T02190115  RH  052%=      5-min Rain = 0
KMC5 260045Z 13022G27KT 22/12 A3003 RMK A01 T02190115  RH  052%=      5-min Rain = 0
KMC5 260046Z 13022KT 22/12 A3003 RMK A01 T02180116  RH  052%=      5-min Rain = 0
KMC5 260047Z 13020KT 22/12 A3003 RMK A01 T02170119  RH  054%=      5-min Rain = 0
KMC5 260048Z 13022G27KT 22/12 A3003 RMK A01 T02150121  RH  055%=      5-min Rain = 0
KMC5 260049Z 13022KT 21/12 A3002 RMK A01 T02130123  RH  056%=      5-min Rain = 0
KMC5 260050Z 13023G29KT 21/12 A3002 RMK A01 T02100124  RH  058%=      5-min Rain = 0
KMC5 260051Z 13023KT 21/12 A3002 RMK A01 T02090123  RH  058%=      5-min Rain = 0
KMC5 260052Z 13021KT 21/13 A3002 RMK A01 T02080126  RH  059%=      5-min Rain = 0
KMC5 260053Z 13019G24KT 20/13 A3002 RMK A01 T02040130  RH  062%=      5-min Rain = 0
KMC5 260054Z 14019G29KT 20/13 A3001 RMK A01 T02010130  RH  063%=      5-min Rain = 0
KMC5 260055Z 14023G28KT 20/13 A3001 RMK A01 T02000127  RH  063%=      5-min Rain = 0
KMC5 260056Z 14021G29KT 20/13 A3001 RMK A01 T02000129  RH  064%=      5-min Rain = 0
KMC5 260057Z 13025KT 20/13 A3001 RMK A01 T01990126  RH  063%=      5-min Rain = 0
KMC5 260058Z 13023KT 20/13 A3001 RMK A01 T02000126  RH  062%=      5-min Rain = 0
KMC5 260059Z 14021KT 20/13 A3001 RMK A01 T02000128  RH  063%=      5-min Rain = 0
KMC5 260100Z 14020KT 20/13 A3001 RMK A01 T01990130  RH  064%=      5-min Rain = 0
KMC5 260101Z 14022KT 20/13 A3001 RMK A01 T01980130  RH  065%=      5-min Rain = 0
KMC5 260102Z 13022KT 20/13 A3001 RMK A01 T01970131  RH  066%=      5-min Rain = 0
KMC5 260103Z 13020KT 20/13 A3001 RMK A01 T01960130  RH  065%=      5-min Rain = 0
KMC5 260104Z 13020G27KT 20/13 A3001 RMK A01 T01960132  RH  066%=      5-min Rain = 0
KMC5 260105Z 13023G28KT 20/13 A3001 RMK A01 T01960131  RH  066%=      5-min Rain = 0
KMC5 260106Z 13023G28KT 20/13 A3001 RMK A01 T01970129  RH  065%=      5-min Rain = 0
KMC5 260107Z 13021KT 20/13 A3001 RMK A01 T01980130  RH  065%=      5-min Rain = 0
KMC5 260108Z 12022G27KT 20/13 A3001 RMK A01 T01990129  RH  064%=      5-min Rain = 0
KMC5 260109Z 12024G32KT 20/13 A3001 RMK A01 T02010125  RH  061%=      5-min Rain = 0
KMC5 260110Z 12023KT 21/12 A3001 RMK A01 T02050124  RH  060%=      5-min Rain = 0
KMC5 260111Z 12020G26KT 21/13 A3001 RMK A01 T02060126  RH  060%=      5-min Rain = 0
KMC5 260112Z 12019G27KT 21/13 A3001 RMK A01 T02060126  RH  060%=      5-min Rain = 0
KMC5 260113Z 12021KT 21/12 A3001 RMK A01 T02060123  RH  059%=      5-min Rain = 0
KMC5 260114Z 12021G26KT 21/12 A3001 RMK A01 T02090121  RH  057%=      5-min Rain = 0
KMC5 260115Z 13020G25KT 21/12 A3001 RMK A01 T02110121  RH  056%=      5-min Rain = 0
KMC5 260116Z 13019KT 21/12 A3002 RMK A01 T02130122  RH  056%=      5-min Rain = 0
KMC5 260117Z 13017G24KT 21/12 A3002 RMK A01 T02130123  RH  057%=      5-min Rain = 0
KMC5 260118Z 13019KT 21/12 A3003 RMK A01 T02120123  RH  057%=      5-min Rain = 0
KMC5 260119Z 13016KT 21/13 A3003 RMK A01 T02120125  RH  058%=      5-min Rain = 0
KMC5 260120Z 13017KT 21/12 A3004 RMK A01 T02110124  RH  057%=      5-min Rain = 0
KMC5 260121Z 13017G22KT 21/12 A3004 RMK A01 T02120122  RH  056%=      5-min Rain = 0
KMC5 260122Z 14014KT 21/13 A3004 RMK A01 T02130125  RH  057%=      5-min Rain = 0
KMC5 260123Z 14014KT 21/12 A3004 RMK A01 T02120124  RH  057%=      5-min Rain = 0
KMC5 260124Z 14018KT 21/12 A3003 RMK A01 T02110123  RH  057%=      5-min Rain = 0
KMC5 260125Z 13017G22KT 21/12 A3003 RMK A01 T02110123  RH  057%=      5-min Rain = 0
KMC5 260126Z 14017KT 21/12 A3003 RMK A01 T02120124  RH  057%=      5-min Rain = 0
KMC5 260127Z 14017KT 21/13 A3003 RMK A01 T02120125  RH  058%=      5-min Rain = 0
KMC5 260128Z 14018G25KT 21/13 A3003 RMK A01 T02110125  RH  058%=      5-min Rain = 0
KMC5 260129Z 15016KT 21/13 A3003 RMK A01 T02100126  RH  058%=      5-min Rain = 0
KMC5 260130Z 16014KT 21/13 A3003 RMK A01 T02100128  RH  060%=      5-min Rain = 0
KMC5 260131Z 17016KT 21/13 A3003 RMK A01 T02080130  RH  061%=      5-min Rain = 0
KMC5 260132Z 17017KT 21/13 A3003 RMK A01 T02050132  RH  063%=      5-min Rain = 0
KMC5 260133Z 17018KT 20/13 A3003 RMK A01 T02020131  RH  064%=      5-min Rain = 0
KMC5 260134Z 17020KT 20/13 A3003 RMK A01 T02000131  RH  065%=      5-min Rain = 0
KMC5 260135Z 16020KT 20/13 A3004 RMK A01 T02000130  RH  064%=      5-min Rain = 0
KMC5 260136Z 16018G24KT 20/13 A3004 RMK A01 T02000131  RH  064%=      5-min Rain = 0
KMC5 260137Z 17018G24KT 20/13 A3004 RMK A01 T02000131  RH  065%=      5-min Rain = 0
KMC5 260138Z 17017KT 20/13 A3004 RMK A01 T01990132  RH  065%=      5-min Rain = 0
KMC5 260139Z 17017KT 20/13 A3004 RMK A01 T01990133  RH  066%=      5-min Rain = 0
KMC5 260140Z 17017KT 20/13 A3004 RMK A01 T01990133  RH  066%=      5-min Rain = 0
KMC5 260141Z 17015KT 20/13 A3004 RMK A01 T01980133  RH  066%=      5-min Rain = 0
KMC5 260142Z 17014KT 20/13 A3004 RMK A01 T01980134  RH  067%=      5-min Rain = 0
KMC5 260143Z 17013KT 20/14 A3004 RMK A01 T01970135  RH  067%=      5-min Rain = 0
KMC5 260144Z 17014KT 20/14 A3004 RMK A01 T01960135  RH  068%=      5-min Rain = 0
KMC5 260145Z 17014G19KT 20/14 A3004 RMK A01 T01960135  RH  068%=      5-min Rain = 0
KMC5 260146Z 17017KT 20/13 A3004 RMK A01 T01960134  RH  067%=      5-min Rain = 0
KMC5 260147Z 17017KT 20/13 A3004 RMK A01 T01970133  RH  066%=      5-min Rain = 0
KMC5 260148Z 17018KT 20/13 A3004 RMK A01 T01980133  RH  066%=      5-min Rain = 0
KMC5 260149Z 17018KT 20/13 A3004 RMK A01 T01990133  RH  065%=      5-min Rain = 0
KMC5 260150Z 17019KT 20/13 A3004 RMK A01 T02000132  RH  065%=      5-min Rain = 0
KMC5 260151Z 17018G23KT 20/13 A3005 RMK A01 T02010131  RH  064%=      5-min Rain = 0
KMC5 260152Z 17021G26KT 20/13 A3005 RMK A01 T02020131  RH  064%=      5-min Rain = 0
KMC5 260153Z 18020KT 20/13 A3005 RMK A01 T02030131  RH  063%=      5-min Rain = 0
KMC5 260154Z 17022KT 20/13 A3006 RMK A01 T02040131  RH  063%=      5-min Rain = 0
KMC5 260155Z 17023KT 20/13 A3006 RMK A01 T02040130  RH  062%=      5-min Rain = 0
KMC5 260156Z 16018G23KT 21/13 A3006 RMK A01 T02060129  RH  061%=      5-min Rain = 0
KMC5 260157Z 17019G24KT 21/13 A3006 RMK A01 T02060130  RH  061%=      5-min Rain = 0
KMC5 260158Z 16019KT 21/13 A3007 RMK A01 T02070128  RH  061%=      5-min Rain = 0
KMC5 260159Z 16022KT 21/13 A3007 RMK A01 T02080125  RH  059%=      5-min Rain = 0
KMC5 260200Z 16019KT 21/12 A3007 RMK A01 T02100123  RH  057%=      5-min Rain = 0
KMC5 260201Z 16019G24KT 21/12 A3007 RMK A01 T02120123  RH  057%=      5-min Rain = 0
KMC5 260202Z 16025G30KT 21/12 A3007 RMK A01 T02120120  RH  056%=      5-min Rain = 0
KMC5 260203Z 15021KT 21/12 A3007 RMK A01 T02140120  RH  055%=      5-min Rain = 0
KMC5 260204Z 15021G28KT 22/12 A3007 RMK A01 T02150120  RH  054%=      5-min Rain = 0
KMC5 260205Z 15018G25KT 22/12 A3007 RMK A01 T02160120  RH  054%=      5-min Rain = 0
KMC5 260206Z 14023KT 22/12 A3006 RMK A01 T02160117  RH  053%=      5-min Rain = 0
KMC5 260207Z 15021G26KT 22/12 A3006 RMK A01 T02170116  RH  053%=      5-min Rain = 0
KMC5 260208Z 14021G26KT 22/12 A3006 RMK A01 T02180117  RH  053%=      5-min Rain = 0
KMC5 260209Z 15018KT 22/12 A3006 RMK A01 T02190116  RH  052%=      5-min Rain = 0
KMC5 260210Z 14020G29KT 22/12 A3006 RMK A01 T02180118  RH  053%=      5-min Rain = 0
KMC5 260211Z 14020KT 22/12 A3006 RMK A01 T02180115  RH  052%=      5-min Rain = 0
KMC5 260212Z 14022G29KT 22/11 A3006 RMK A01 T02190114  RH  051%=      5-min Rain = 0
KMC5 260213Z 14021KT 22/12 A3006 RMK A01 T02200115  RH  052%=      5-min Rain = 0
KMC5 260214Z 14025G30KT 22/11 A3006 RMK A01 T02200113  RH  051%=      5-min Rain = 0
KMC5 260215Z 14019G25KT 22/11 A3007 RMK A01 T02200113  RH  050%=      5-min Rain = 0
KMC5 260216Z 14019KT 22/12 A3007 RMK A01 T02210115  RH  051%=      5-min Rain = 0
KMC5 260217Z 13022KT 22/11 A3007 RMK A01 T02200114  RH  051%=      5-min Rain = 0
KMC5 260218Z 14018G23KT 22/11 A3007 RMK A01 T02190114  RH  051%=      5-min Rain = 0
KMC5 260219Z 14019KT 22/12 A3007 RMK A01 T02190115  RH  052%=      5-min Rain = 0
KMC5 260220Z 14019KT 22/11 A3007 RMK A01 T02180113  RH  051%=      5-min Rain = 0
KMC5 260221Z 14020KT 22/11 A3007 RMK A01 T02180114  RH  052%=      5-min Rain = 0
KMC5 260222Z 14020KT 22/11 A3007 RMK A01 T02180113  RH  051%=      5-min Rain = 0
KMC5 260223Z 14017KT 22/12 A3008 RMK A01 T02190115  RH  052%=      5-min Rain = 0
KMC5 260224Z 14019G25KT 22/12 A3008 RMK A01 T02180116  RH  052%=      5-min Rain = 0
KMC5 260225Z 14023G28KT 22/11 A3008 RMK A01 T02180111  RH  051%=      5-min Rain = 0
KMC5 260226Z 14020KT 22/11 A3008 RMK A01 T02190111  RH  050%=      5-min Rain = 0
KMC5 260227Z 14022G27KT 22/11 A3008 RMK A01 T02200112  RH  050%=      5-min Rain = 0
KMC5 260228Z 14021G28KT 22/11 A3008 RMK A01 T02200111  RH  050%=      5-min Rain = 0
KMC5 260229Z 14022KT 22/11 A3007 RMK A01 T02200109  RH  049%=      5-min Rain = 0
KMC5 260230Z 14022G30KT 22/11 A3007 RMK A01 T02210108  RH  049%=      5-min Rain = 0
KMC5 260231Z 13023KT 22/11 A3007 RMK A01 T02220106  RH  048%=      5-min Rain = 0
KMC5 260232Z 14025G31KT 22/11 A3007 RMK A01 T02220106  RH  048%=      5-min Rain = 0
KMC5 260233Z 14023G29KT 22/11 A3007 RMK A01 T02220107  RH  048%=      5-min Rain = 0
KMC5 260234Z 14026KT 22/11 A3007 RMK A01 T02230105  RH  047%=      5-min Rain = 0
KMC5 260235Z 14028KT 22/10 A3007 RMK A01 T02230104  RH  047%=      5-min Rain = 0
KMC5 260236Z 14025KT 22/10 A3006 RMK A01 T02240104  RH  047%=      5-min Rain = 0
KMC5 260237Z 14024G31KT 22/11 A3006 RMK A01 T02240105  RH  047%=      5-min Rain = 0
KMC5 260238Z 14026G32KT 22/10 A3006 RMK A01 T02230104  RH  047%=      5-min Rain = 0
KMC5 260239Z 14025G30KT 22/11 A3006 RMK A01 T02230105  RH  047%=      5-min Rain = 0
KMC5 260240Z 14024KT 22/10 A3006 RMK A01 T02220104  RH  047%=      5-min Rain = 0
KMC5 260241Z 14025KT 22/10 A3006 RMK A01 T02220104  RH  047%=      5-min Rain = 0
KMC5 260242Z 15020KT 22/10 A3006 RMK A01 T02220104  RH  047%=      5-min Rain = 0
KMC5 260243Z 14023G29KT 22/10 A3006 RMK A01 T02210103  RH  047%=      5-min Rain = 0
KMC5 260244Z 15024KT 22/10 A3006 RMK A01 T02210103  RH  047%=      5-min Rain = 0
KMC5 260245Z 15026G33KT 22/10 A3005 RMK A01 T02220101  RH  046%=      5-min Rain = 0
KMC5 260246Z 15027G32KT 22/10 A3005 RMK A01 T02230101  RH  046%=      5-min Rain = 0
KMC5 260247Z 15024G31KT 22/10 A3005 RMK A01 T02240103  RH  046%=      5-min Rain = 0
KMC5 260248Z 14023G30KT 22/10 A3005 RMK A01 T02230102  RH  046%=      5-min Rain = 0
KMC5 260249Z 14028KT 22/10 A3005 RMK A01 T02220102  RH  046%=      5-min Rain = 0
KMC5 260250Z 14026G31KT 22/10 A3005 RMK A01 T02220101  RH  046%=      5-min Rain = 0
KMC5 260251Z 14026KT 22/10 A3005 RMK A01 T02230103  RH  046%=      5-min Rain = 0
KMC5 260252Z 14025KT 22/10 A3005 RMK A01 T02220103  RH  047%=      5-min Rain = 0
KMC5 260253Z 14026KT 22/10 A3005 RMK A01 T02220103  RH  047%=      5-min Rain = 0
KMC5 260254Z 14024G29KT 22/10 A3006 RMK A01 T02220103  RH  047%=      5-min Rain = 0
KMC5 260255Z 13021G28KT 22/10 A3006 RMK A01 T02220103  RH  047%=      5-min Rain = 0
KMC5 260256Z 13019G25KT 22/11 A3006 RMK A01 T02210105  RH  047%=      5-min Rain = 0
KMC5 260257Z 14019G24KT 22/11 A3006 RMK A01 T02210105  RH  048%=      5-min Rain = 0
KMC5 260258Z 13020G25KT 22/11 A3006 RMK A01 T02200105  RH  048%=      5-min Rain = 0
KMC5 260259Z 14018G24KT 22/11 A3006 RMK A01 T02200106  RH  048%=      5-min Rain = 0
KMC5 260300Z 15020G30KT 22/11 A3006 RMK A01 T02190107  RH  049%=      5-min Rain = 0
KMC5 260301Z 14024KT 22/11 A3006 RMK A01 T02190106  RH  049%=      5-min Rain = 0
KMC5 260302Z 14022G27KT 22/11 A3006 RMK A01 T02180107  RH  049%=      5-min Rain = 0
KMC5 260303Z 14023G28KT 22/11 A3007 RMK A01 T02180109  RH  050%=      5-min Rain = 0
KMC5 260304Z 14023KT 22/11 A3007 RMK A01 T02180109  RH  050%=      5-min Rain = 0
KMC5 260305Z 14026G31KT 22/11 A3007 RMK A01 T02170108  RH  050%=      5-min Rain = 0
KMC5 260306Z 14022G31KT 22/11 A3007 RMK A01 T02170108  RH  050%=      5-min Rain = 0
KMC5 260307Z 14021G26KT 22/11 A3007 RMK A01 T02170109  RH  050%=      5-min Rain = 0
KMC5 260308Z 14023G28KT 22/11 A3007 RMK A01 T02170108  RH  050%=      5-min Rain = 0
KMC5 260309Z 14021G29KT 22/11 A3007 RMK A01 T02170109  RH  050%=      5-min Rain = 0
KMC5 260310Z 14021KT 22/11 A3008 RMK A01 T02160110  RH  051%=      5-min Rain = 0
KMC5 260311Z 15024G31KT 22/11 A3008 RMK A01 T02160109  RH  050%=      5-min Rain = 0
KMC5 260312Z 15023KT 22/11 A3008 RMK A01 T02160109  RH  050%=      5-min Rain = 0
KMC5 260313Z 15019G27KT 22/11 A3008 RMK A01 T02160110  RH  051%=      5-min Rain = 0
KMC5 260314Z 14020G29KT 22/11 A3008 RMK A01 T02150111  RH  052%=      5-min Rain = 0
KMC5 260315Z 15022KT 21/11 A3008 RMK A01 T02140109  RH  051%=      5-min Rain = 0
KMC5 260316Z 14021KT 21/11 A3008 RMK A01 T02140108  RH  051%=      5-min Rain = 0
KMC5 260317Z 14018G23KT 22/11 A3008 RMK A01 T02150109  RH  051%=      5-min Rain = 0
KMC5 260318Z 14020KT 22/11 A3008 RMK A01 T02150108  RH  051%=      5-min Rain = 0
KMC5 260319Z 14021G26KT 22/11 A3008 RMK A01 T02150108  RH  051%=      5-min Rain = 0
KMC5 260320Z 14022KT 22/11 A3008 RMK A01 T02160107  RH  050%=      5-min Rain = 0
KMC5 260321Z 14018KT 22/11 A3008 RMK A01 T02160108  RH  050%=      5-min Rain = 0
KMC5 260322Z 14017KT 22/11 A3008 RMK A01 T02160109  RH  051%=      5-min Rain = 0
KMC5 260323Z 14017KT 22/11 A3008 RMK A01 T02150110  RH  051%=      5-min Rain = 0
KMC5 260324Z 14016G23KT 21/11 A3008 RMK A01 T02140110  RH  052%=      5-min Rain = 0
KMC5 260325Z 14019KT 21/11 A3008 RMK A01 T02140108  RH  051%=      5-min Rain = 0
KMC5 260326Z 14018G23KT 21/11 A3008 RMK A01 T02140109  RH  051%=      5-min Rain = 0
KMC5 260327Z 14016G21KT 22/11 A3008 RMK A01 T02150109  RH  051%=      5-min Rain = 0
KMC5 260328Z 14016G23KT 21/11 A3008 RMK A01 T02140110  RH  051%=      5-min Rain = 0
KMC5 260329Z 14020KT 21/11 A3008 RMK A01 T02140109  RH  051%=      5-min Rain = 0
KMC5 260330Z 14019G25KT 21/11 A3008 RMK A01 T02140108  RH  051%=      5-min Rain = 0
KMC5 260331Z 15020KT 22/11 A3008 RMK A01 T02150108  RH  051%=      5-min Rain = 0
KMC5 260332Z 15019KT 22/11 A3008 RMK A01 T02150108  RH  051%=      5-min Rain = 0
KMC5 260333Z 14020G25KT 22/11 A3008 RMK A01 T02160109  RH  051%=      5-min Rain = 0
KMC5 260334Z 15018KT 22/11 A3008 RMK A01 T02150109  RH  051%=      5-min Rain = 0
KMC5 260335Z 15017G24KT 22/11 A3008 RMK A01 T02150110  RH  051%=      5-min Rain = 0
KMC5 260336Z 15019KT 21/11 A3007 RMK A01 T02140108  RH  051%=      5-min Rain = 0
KMC5 260337Z 15016KT 21/11 A3007 RMK A01 T02140109  RH  051%=      5-min Rain = 0
KMC5 260338Z 15019KT 21/11 A3007 RMK A01 T02140110  RH  051%=      5-min Rain = 0
KMC5 260339Z 15016KT 21/11 A3008 RMK A01 T02140109  RH  051%=      5-min Rain = 0
KMC5 260340Z 15017G23KT 21/11 A3008 RMK A01 T02140110  RH  051%=      5-min Rain = 0
KMC5 260341Z 15019KT 21/11 A3007 RMK A01 T02140109  RH  051%=      5-min Rain = 0
KMC5 260342Z 15017KT 22/11 A3008 RMK A01 T02150110  RH  051%=      5-min Rain = 0
KMC5 260343Z 15016G22KT 21/11 A3007 RMK A01 T02140110  RH  051%=      5-min Rain = 0
KMC5 260344Z 15017KT 21/11 A3008 RMK A01 T02140109  RH  051%=      5-min Rain = 0
KMC5 260345Z 15017KT 21/11 A3008 RMK A01 T02140109  RH  051%=      5-min Rain = 0
KMC5 260346Z 15014KT 21/11 A3008 RMK A01 T02140111  RH  052%=      5-min Rain = 0
KMC5 260347Z 15014KT 21/11 A3008 RMK A01 T02140110  RH  052%=      5-min Rain = 0
KMC5 260348Z 15014G19KT 21/11 A3008 RMK A01 T02140111  RH  052%=      5-min Rain = 0
KMC5 260349Z 15016KT 21/11 A3008 RMK A01 T02130110  RH  052%=      5-min Rain = 0
KMC5 260350Z 15017KT 21/11 A3008 RMK A01 T02130109  RH  051%=      5-min Rain = 0
KMC5 260351Z 15017KT 21/11 A3008 RMK A01 T02140109  RH  051%=      5-min Rain = 0
KMC5 260352Z 15018KT 22/11 A3008 RMK A01 T02150110  RH  051%=      5-min Rain = 0
KMC5 260353Z 15015KT 22/11 A3008 RMK A01 T02150110  RH  051%=      5-min Rain = 0
KMC5 260354Z 16017KT 22/11 A3008 RMK A01 T02150111  RH  051%=      5-min Rain = 0
KMC5 260355Z 15014KT 22/11 A3008 RMK A01 T02150110  RH  051%=      5-min Rain = 0
KMC5 260356Z 16016KT 21/11 A3008 RMK A01 T02140111  RH  052%=      5-min Rain = 0
KMC5 260357Z 17013KT 21/11 A3008 RMK A01 T02140111  RH  052%=      5-min Rain = 0
KMC5 260358Z 17015KT 21/11 A3008 RMK A01 T02140112  RH  052%=      5-min Rain = 0
KMC5 260359Z 17014KT 21/11 A3008 RMK A01 T02130111  RH  052%=      5-min Rain = 0
KMC5 260400Z 18015KT 21/11 A3008 RMK A01 T02140112  RH  052%=      5-min Rain = 0
KMC5 260401Z 18012G17KT 21/11 A3008 RMK A01 T02130112  RH  052%=      5-min Rain = 0
KMC5 260402Z 18013KT 21/11 A3008 RMK A01 T02130113  RH  053%=      5-min Rain = 0
KMC5 260403Z 19015KT 21/11 A3009 RMK A01 T02130112  RH  053%=      5-min Rain = 0
KMC5 260404Z 19016KT 21/11 A3009 RMK A01 T02130112  RH  053%=      5-min Rain = 0
KMC5 260405Z 19016G21KT 21/11 A3009 RMK A01 T02130112  RH  052%=      5-min Rain = 0
KMC5 260406Z 19017KT 21/11 A3009 RMK A01 T02140113  RH  053%=      5-min Rain = 0
KMC5 260407Z 19015KT 21/12 A3009 RMK A01 T02130116  RH  054%=      5-min Rain = 0
KMC5 260408Z 18017KT 21/12 A3008 RMK A01 T02110117  RH  055%=      5-min Rain = 0
KMC5 260409Z 17019KT 21/12 A3007 RMK A01 T02100117  RH  055%=      5-min Rain = 0
KMC5 260410Z 16017KT 21/12 A3007 RMK A01 T02090118  RH  056%=      5-min Rain = 0
KMC5 260411Z 16018G23KT 21/12 A3006 RMK A01 T02080118  RH  056%=      5-min Rain = 0
KMC5 260412Z 16020KT 21/12 A3006 RMK A01 T02080117  RH  056%=      5-min Rain = 0
KMC5 260413Z 15020KT 21/12 A3005 RMK A01 T02080116  RH  055%=      5-min Rain = 0
KMC5 260414Z 15019KT 21/12 A3005 RMK A01 T02090115  RH  055%=      5-min Rain = 0
KMC5 260415Z 15014G19KT 21/12 A3005 RMK A01 T02090116  RH  055%=      5-min Rain = 0
KMC5 260416Z 16015KT 21/12 A3006 RMK A01 T02090117  RH  055%=      5-min Rain = 0
KMC5 260417Z 16013KT 21/12 A3006 RMK A01 T02090116  RH  055%=      5-min Rain = 0
KMC5 260418Z 16017KT 21/11 A3006 RMK A01 T02090113  RH  054%=      5-min Rain = 0
KMC5 260419Z 17016G21KT 21/11 A3006 RMK A01 T02110111  RH  053%=      5-min Rain = 0
KMC5 260420Z 16015KT 21/11 A3005 RMK A01 T02130112  RH  052%=      5-min Rain = 0
KMC5 260421Z 16017KT 21/11 A3005 RMK A01 T02140111  RH  052%=      5-min Rain = 0
KMC5 260422Z 16017KT 22/11 A3004 RMK A01 T02150109  RH  051%=      5-min Rain = 0
KMC5 260423Z 16016KT 22/11 A3003 RMK A01 T02160109  RH  050%=      5-min Rain = 0
KMC5 260424Z 16020G26KT 22/11 A3003 RMK A01 T02170108  RH  050%=      5-min Rain = 0
KMC5 260425Z 17023G28KT 22/11 A3002 RMK A01 T02200105  RH  048%=      5-min Rain = 0
KMC5 260426Z 16018KT 22/11 A3002 RMK A01 T02230106  RH  048%=      5-min Rain = 0
KMC5 260427Z 15021KT 22/11 A3002 RMK A01 T02220109  RH  049%=      5-min Rain = 0
KMC5 260428Z 15018KT 22/11 A3002 RMK A01 T02190111  RH  050%=      5-min Rain = 0
KMC5 260429Z 16020KT 22/11 A3002 RMK A01 T02170113  RH  051%=      5-min Rain = 0
KMC5 260430Z 16016KT 22/11 A3002 RMK A01 T02150114  RH  052%=      5-min Rain = 0
KMC5 260431Z 17017KT 21/11 A3002 RMK A01 T02140114  RH  053%=      5-min Rain = 0
KMC5 260432Z 17014G19KT 21/12 A3002 RMK A01 T02130115  RH  054%=      5-min Rain = 0
KMC5 260433Z 17017G22KT 21/11 A3001 RMK A01 T02120112  RH  053%=      5-min Rain = 0
KMC5 260434Z 17021KT 22/11 A3001 RMK A01 T02150109  RH  051%=      5-min Rain = 0
KMC5 260435Z 17017G22KT 22/11 A3001 RMK A01 T02200107  RH  049%=      5-min Rain = 0
KMC5 260436Z 17012KT 22/11 A3002 RMK A01 T02210109  RH  049%=      5-min Rain = 0
KMC5 260437Z 18010KT 22/11 A3002 RMK A01 T02210108  RH  048%=      5-min Rain = 0
KMC5 260438Z 18014KT 22/11 A3001 RMK A01 T02210110  RH  049%=      5-min Rain = 0
KMC5 260439Z 17015KT 22/11 A3001 RMK A01 T02200112  RH  050%=      5-min Rain = 0
KMC5 260440Z 18014KT 22/11 A3001 RMK A01 T02190114  RH  052%=      5-min Rain = 0
KMC5 260441Z 19014KT 22/12 A3001 RMK A01 T02170115  RH  052%=      5-min Rain = 0
KMC5 260442Z 18011KT 22/12 A3001 RMK A01 T02160117  RH  053%=      5-min Rain = 0
KMC5 260443Z 19010KT 21/12 A3001 RMK A01 T02140119  RH  054%=      5-min Rain = 0
KMC5 260444Z 21009KT 21/12 A3001 RMK A01 T02120119  RH  055%=      5-min Rain = 0
KMC5 260445Z 22010KT 21/12 A3002 RMK A01 T02110119  RH  056%=      5-min Rain = 0
KMC5 260446Z 24010KT 21/12 A3002 RMK A01 T02110119  RH  056%=      5-min Rain = 0
KMC5 260447Z 25013KT 21/12 A3002 RMK A01 T02100121  RH  056%=      5-min Rain = 0
KMC5 260448Z 27009KT 21/12 A3002 RMK A01 T02100121  RH  057%=      5-min Rain = 0
KMC5 260449Z 29010KT 21/12 A3002 RMK A01 T02090119  RH  056%=      5-min Rain = 0
KMC5 260450Z 26012KT 21/11 A3002 RMK A01 T02110113  RH  054%=      5-min Rain = 0
KMC5 260451Z 25007KT 22/11 A3001 RMK A01 T02170111  RH  051%=      5-min Rain = 0
KMC5 260452Z 25006G11KT 22/11 A3001 RMK A01 T02200111  RH  050%=      5-min Rain = 0
KMC5 260453Z 27010KT 22/11 A3002 RMK A01 T02220110  RH  049%=      5-min Rain = 0
KMC5 260454Z 27011KT 22/12 A3002 RMK A01 T02230115  RH  050%=      5-min Rain = 0
KMC5 260455Z 25010KT 22/11 A3002 RMK A01 T02210114  RH  051%=      5-min Rain = 0
KMC5 260456Z 23010KT 22/11 A3001 RMK A01 T02200113  RH  050%=      5-min Rain = 0
KMC5 260457Z 23014KT 22/10 A3001 RMK A01 T02220102  RH  046%=      5-min Rain = 0
KMC5 260458Z 22014G19KT 23/10 A3001 RMK A01 T02320100  RH  043%=      5-min Rain = 0
KMC5 260459Z 22014KT 24/10 A3001 RMK A01 T02380101  RH  042%=      5-min Rain = 0

Page generated in 0.1323 seconds.